<?xml version='1.0' encoding='UTF-8'?><gpx version="1.1" creator="JPX - https://github.com/jenetics/jpx" xmlns="http://www.topografix.com/GPX/1/1"><trk><trkseg><trkpt lat="45.79940419964613" lon="8.935740278241727"><ele>410.0</ele><time>2026-04-11T09:41:14.025Z</time></trkpt><trkpt lat="45.79940566514082" lon="8.935835681916439"><ele>410.0</ele><time>2026-04-11T09:41:19.018Z</time></trkpt><trkpt lat="45.79937071048443" lon="8.936000333734471"><ele>410.0</ele><time>2026-04-11T09:42:00.019Z</time></trkpt><trkpt lat="45.79945113907115" lon="8.936017619274535"><ele>410.0</ele><time>2026-04-11T09:42:02.025Z</time></trkpt><trkpt lat="45.7995491889594" lon="8.936046435551667"><ele>410.0</ele><time>2026-04-11T09:42:04.018Z</time></trkpt><trkpt lat="45.7996415570859" lon="8.936062517353815"><ele>410.3333333333333</ele><time>2026-04-11T09:42:06.03Z</time></trkpt><trkpt lat="45.79971251188473" lon="8.936074503194943"><ele>410.66666666666663</ele><time>2026-04-11T09:42:08.022Z</time></trkpt><trkpt lat="45.79979096970908" lon="8.93609929868696"><ele>411.0</ele><time>2026-04-11T09:42:10.02Z</time></trkpt><trkpt lat="45.79986580480979" lon="8.936121861600872"><ele>411.33333333333337</ele><time>2026-04-11T09:42:12.02Z</time></trkpt><trkpt lat="45.79994220957107" lon="8.936133080446918"><ele>411.6666666666667</ele><time>2026-04-11T09:42:14.02Z</time></trkpt><trkpt lat="45.80001725009778" lon="8.936139482869011"><ele>412.0</ele><time>2026-04-11T09:42:16.015Z</time></trkpt><trkpt lat="45.80008671126637" lon="8.936145285404528"><ele>412.5</ele><time>2026-04-11T09:42:18.027Z</time></trkpt><trkpt lat="45.80040541649855" lon="8.936406276950617"><ele>413.0</ele><time>2026-04-11T09:42:38.023Z</time></trkpt><trkpt lat="45.800372040057866" lon="8.936523793207657"><ele>412.99999999999994</ele><time>2026-04-11T09:42:43.016Z</time></trkpt><trkpt lat="45.80034803134494" lon="8.936629109893527"><ele>413.0</ele><time>2026-04-11T09:42:46.027Z</time></trkpt><trkpt lat="45.80032653188196" lon="8.936718681313465"><ele>413.0</ele><time>2026-04-11T09:42:48.028Z</time></trkpt><trkpt lat="45.80029942639733" lon="8.936811989355315"><ele>413.0</ele><time>2026-04-11T09:42:50.02Z</time></trkpt><trkpt lat="45.8002631970985" lon="8.93694890134013"><ele>412.99999999999994</ele><time>2026-04-11T09:42:53.03Z</time></trkpt><trkpt lat="45.80021418087693" lon="8.937040731486372"><ele>413.0</ele><time>2026-04-11T09:42:55.998Z</time></trkpt><trkpt lat="45.800178772376796" lon="8.937157458181169"><ele>413.0</ele><time>2026-04-11T09:42:58.998Z</time></trkpt><trkpt lat="45.80015467435473" lon="8.937251192772395"><ele>413.0</ele><time>2026-04-11T09:43:00.998Z</time></trkpt><trkpt lat="45.80013854844176" lon="8.93734537575779"><ele>413.0</ele><time>2026-04-11T09:43:02.999Z</time></trkpt><trkpt lat="45.80011461795884" lon="8.937446893228726"><ele>413.0</ele><time>2026-04-11T09:43:04.999Z</time></trkpt><trkpt lat="45.800089706667336" lon="8.937533661828416"><ele>413.0</ele><time>2026-04-11T09:43:06.999Z</time></trkpt><trkpt lat="45.800066970147746" lon="8.937633683013287"><ele>413.0</ele><time>2026-04-11T09:43:08.999Z</time></trkpt><trkpt lat="45.80005040393004" lon="8.937725854434412"><ele>413.0</ele><time>2026-04-11T09:43:10.999Z</time></trkpt><trkpt lat="45.80002933308239" lon="8.93782890838995"><ele>413.0</ele><time>2026-04-11T09:43:12.999Z</time></trkpt><trkpt lat="45.800010837918855" lon="8.937928629168393"><ele>413.0</ele><time>2026-04-11T09:43:14.999Z</time></trkpt><trkpt lat="45.79999348096806" lon="8.938038017449523"><ele>413.0</ele><time>2026-04-11T09:43:16.999Z</time></trkpt><trkpt lat="45.79998159334072" lon="8.938133416338093"><ele>413.0</ele><time>2026-04-11T09:43:18.999Z</time></trkpt><trkpt lat="45.79996259121028" lon="8.938235826975166"><ele>413.0</ele><time>2026-04-11T09:43:21Z</time></trkpt><trkpt lat="45.79994167034817" lon="8.938342974078223"><ele>413.0</ele><time>2026-04-11T09:43:23Z</time></trkpt><trkpt lat="45.79991883255182" lon="8.938447750376923"><ele>413.0</ele><time>2026-04-11T09:43:25Z</time></trkpt><trkpt lat="45.79989322522135" lon="8.938549759688547"><ele>413.57142857142856</ele><time>2026-04-11T09:43:27Z</time></trkpt><trkpt lat="45.79988233280592" lon="8.938651082161229"><ele>414.1428571428571</ele><time>2026-04-11T09:43:29Z</time></trkpt><trkpt lat="45.79985091646979" lon="8.938746579361435"><ele>414.7142857142857</ele><time>2026-04-11T09:43:31Z</time></trkpt><trkpt lat="45.7998121118302" lon="8.938818914414286"><ele>415.2857142857143</ele><time>2026-04-11T09:43:33Z</time></trkpt><trkpt lat="45.79978606854929" lon="8.938908623272974"><ele>415.85714285714283</ele><time>2026-04-11T09:43:35Z</time></trkpt><trkpt lat="45.799762532546104" lon="8.939008019864124"><ele>416.42857142857144</ele><time>2026-04-11T09:43:37Z</time></trkpt><trkpt lat="45.79973261389433" lon="8.93909138444206"><ele>417.0</ele><time>2026-04-11T09:43:39Z</time></trkpt><trkpt lat="45.7996981081554" lon="8.93918974285228"><ele>417.2857142857143</ele><time>2026-04-11T09:43:41Z</time></trkpt><trkpt lat="45.79966423011789" lon="8.939285636756273"><ele>417.57142857142856</ele><time>2026-04-11T09:43:43Z</time></trkpt><trkpt lat="45.79963411160432" lon="8.939380780382638"><ele>417.85714285714283</ele><time>2026-04-11T09:43:45Z</time></trkpt><trkpt lat="45.799607762641756" lon="8.939472470116625"><ele>418.1428571428571</ele><time>2026-04-11T09:43:47Z</time></trkpt><trkpt lat="45.799588068280634" lon="8.93956444233701"><ele>418.42857142857144</ele><time>2026-04-11T09:43:49Z</time></trkpt><trkpt lat="45.799567335302605" lon="8.93966391860711"><ele>418.71428571428567</ele><time>2026-04-11T09:43:51Z</time></trkpt><trkpt lat="45.79954812526123" lon="8.939762201513476"><ele>419.0</ele><time>2026-04-11T09:43:53Z</time></trkpt><trkpt lat="45.799534696970845" lon="8.939850469359618"><ele>418.99999999999994</ele><time>2026-04-11T09:43:55Z</time></trkpt><trkpt lat="45.79950979304777" lon="8.939934878137704"><ele>419.0</ele><time>2026-04-11T09:43:57Z</time></trkpt><trkpt lat="45.799490226428965" lon="8.94002397905331"><ele>419.0</ele><time>2026-04-11T09:43:59Z</time></trkpt><trkpt lat="45.799458482946086" lon="8.940145411292738"><ele>419.0</ele><time>2026-04-11T09:44:02Z</time></trkpt><trkpt lat="45.79941837483552" lon="8.94026414986436"><ele>418.99999999999994</ele><time>2026-04-11T09:44:05Z</time></trkpt><trkpt lat="45.79939111694335" lon="8.940374585661413"><ele>419.0</ele><time>2026-04-11T09:44:08Z</time></trkpt><trkpt lat="45.799358731571886" lon="8.940480347849473"><ele>418.8333333333333</ele><time>2026-04-11T09:44:11Z</time></trkpt><trkpt lat="45.79933431190357" lon="8.940597624869179"><ele>418.66666666666663</ele><time>2026-04-11T09:44:14Z</time></trkpt><trkpt lat="45.79930495221059" lon="8.940715670724668"><ele>418.5</ele><time>2026-04-11T09:44:17Z</time></trkpt><trkpt lat="45.799272955750475" lon="8.940837350510458"><ele>418.33333333333337</ele><time>2026-04-11T09:44:20Z</time></trkpt><trkpt lat="45.79924374565746" lon="8.940952811203783"><ele>418.1666666666667</ele><time>2026-04-11T09:44:23Z</time></trkpt><trkpt lat="45.799218397715514" lon="8.94107509655941"><ele>418.0</ele><time>2026-04-11T09:44:26Z</time></trkpt><trkpt lat="45.79920357963673" lon="8.941176274127992"><ele>418.00000000000006</ele><time>2026-04-11T09:44:29Z</time></trkpt><trkpt lat="45.799186199904035" lon="8.94128337573177"><ele>418.0</ele><time>2026-04-11T09:44:33Z</time></trkpt><trkpt lat="45.799166343268475" lon="8.941415274366888"><ele>418.0</ele><time>2026-04-11T09:44:36Z</time></trkpt><trkpt lat="45.79915244322793" lon="8.941509753467829"><ele>418.0</ele><time>2026-04-11T09:44:38Z</time></trkpt><trkpt lat="45.79913120088407" lon="8.941611170302632"><ele>418.00000000000006</ele><time>2026-04-11T09:44:40Z</time></trkpt><trkpt lat="45.79911157475542" lon="8.941707444664454"><ele>418.0</ele><time>2026-04-11T09:44:42Z</time></trkpt><trkpt lat="45.79908316368859" lon="8.941808296395418"><ele>418.00000000000006</ele><time>2026-04-11T09:44:44Z</time></trkpt><trkpt lat="45.799056653585744" lon="8.941913926393234"><ele>418.0</ele><time>2026-04-11T09:44:46Z</time></trkpt><trkpt lat="45.799027083276634" lon="8.942024708095454"><ele>418.0</ele><time>2026-04-11T09:44:48Z</time></trkpt><trkpt lat="45.79900377243084" lon="8.942134666755233"><ele>418.0</ele><time>2026-04-11T09:44:50Z</time></trkpt><trkpt lat="45.79897732759818" lon="8.942252916407998"><ele>418.00000000000006</ele><time>2026-04-11T09:44:52Z</time></trkpt><trkpt lat="45.798952612404555" lon="8.942370547214527"><ele>418.0</ele><time>2026-04-11T09:44:54Z</time></trkpt><trkpt lat="45.7989286128499" lon="8.942491305708925"><ele>417.83333333333337</ele><time>2026-04-11T09:44:56Z</time></trkpt><trkpt lat="45.79891079137836" lon="8.942595623869535"><ele>417.6666666666667</ele><time>2026-04-11T09:44:58Z</time></trkpt><trkpt lat="45.79888991675017" lon="8.942693486964078"><ele>417.5</ele><time>2026-04-11T09:45:00Z</time></trkpt><trkpt lat="45.79887474995378" lon="8.942788243708335"><ele>417.33333333333337</ele><time>2026-04-11T09:45:01.999Z</time></trkpt><trkpt lat="45.79884405978314" lon="8.942891600647668"><ele>417.1666666666667</ele><time>2026-04-11T09:45:04.999Z</time></trkpt><trkpt lat="45.79883092877298" lon="8.94300685123039"><ele>417.0</ele><time>2026-04-11T09:45:07.999Z</time></trkpt><trkpt lat="45.79875526661195" lon="8.943038713593904"><ele>417.0</ele><time>2026-04-11T09:45:11.999Z</time></trkpt><trkpt lat="45.79868915578324" lon="8.94299853961116"><ele>417.0</ele><time>2026-04-11T09:45:16.999Z</time></trkpt><trkpt lat="45.79875606075545" lon="8.943033420507902"><ele>417.0</ele><time>2026-04-11T09:45:28Z</time></trkpt><trkpt lat="45.798831504320304" lon="8.943089325789474"><ele>417.0</ele><time>2026-04-11T09:45:31Z</time></trkpt><trkpt lat="45.798893038352226" lon="8.943131643210767"><ele>417.0</ele><time>2026-04-11T09:45:34Z</time></trkpt><trkpt lat="45.79897666529096" lon="8.94318315383461"><ele>417.0</ele><time>2026-04-11T09:45:37Z</time></trkpt><trkpt lat="45.79903248484099" lon="8.94323889949491"><ele>417.0</ele><time>2026-04-11T09:45:39Z</time></trkpt><trkpt lat="45.799104587227895" lon="8.943270912503909"><ele>417.0</ele><time>2026-04-11T09:45:42Z</time></trkpt><trkpt lat="45.79905534935732" lon="8.943336086433677"><ele>417.0</ele><time>2026-04-11T09:45:46Z</time></trkpt><trkpt lat="45.798963670729535" lon="8.943295217588574"><ele>417.0</ele><time>2026-04-11T09:45:49Z</time></trkpt><trkpt lat="45.798874787227156" lon="8.943266609591657"><ele>417.0</ele><time>2026-04-11T09:45:51Z</time></trkpt><trkpt lat="45.79879527205257" lon="8.943239025045404"><ele>417.0</ele><time>2026-04-11T09:45:53Z</time></trkpt><trkpt lat="45.798717772819714" lon="8.943257024204115"><ele>417.0</ele><time>2026-04-11T09:45:55Z</time></trkpt><trkpt lat="45.7986277151857" lon="8.943280876218537"><ele>417.0</ele><time>2026-04-11T09:45:57Z</time></trkpt><trkpt lat="45.7985277053108" lon="8.943341094477226"><ele>417.0</ele><time>2026-04-11T09:45:59Z</time></trkpt><trkpt lat="45.79842506463425" lon="8.943360473859165"><ele>417.0</ele><time>2026-04-11T09:46:01Z</time></trkpt><trkpt lat="45.79834490359061" lon="8.943403618089"><ele>417.0</ele><time>2026-04-11T09:46:03Z</time></trkpt><trkpt lat="45.79827549613287" lon="8.943461296947968"><ele>417.1666666666667</ele><time>2026-04-11T09:46:05Z</time></trkpt><trkpt lat="45.79819665296145" lon="8.943527929887537"><ele>417.33333333333337</ele><time>2026-04-11T09:46:07Z</time></trkpt><trkpt lat="45.798127865221375" lon="8.943622921375386"><ele>417.5</ele><time>2026-04-11T09:46:09Z</time></trkpt><trkpt lat="45.79806945679866" lon="8.943684809533492"><ele>417.6666666666667</ele><time>2026-04-11T09:46:11Z</time></trkpt><trkpt lat="45.7980038608934" lon="8.943773807805751"><ele>417.83333333333337</ele><time>2026-04-11T09:46:13Z</time></trkpt><trkpt lat="45.79794288135542" lon="8.943857090956918"><ele>418.0</ele><time>2026-04-11T09:46:15Z</time></trkpt><trkpt lat="45.797876777847414" lon="8.943920654103422"><ele>418.00000000000006</ele><time>2026-04-11T09:46:17Z</time></trkpt><trkpt lat="45.79780511120665" lon="8.944043705393472"><ele>418.0</ele><time>2026-04-11T09:46:19Z</time></trkpt><trkpt lat="45.79773725728486" lon="8.944091579317979"><ele>418.0</ele><time>2026-04-11T09:46:21Z</time></trkpt><trkpt lat="45.79767651323327" lon="8.944179455107573"><ele>418.0</ele><time>2026-04-11T09:46:23Z</time></trkpt><trkpt lat="45.797631985188765" lon="8.944252186759092"><ele>418.00000000000006</ele><time>2026-04-11T09:46:25Z</time></trkpt><trkpt lat="45.7975830839991" lon="8.94434051093248"><ele>418.0</ele><time>2026-04-11T09:46:27Z</time></trkpt><trkpt lat="45.79752616741659" lon="8.944457373299656"><ele>418.50000000000006</ele><time>2026-04-11T09:46:30Z</time></trkpt><trkpt lat="45.79749670482676" lon="8.944539680286447"><ele>419.0</ele><time>2026-04-11T09:46:32Z</time></trkpt><trkpt lat="45.79743855070265" lon="8.944658690537135"><ele>419.5</ele><time>2026-04-11T09:46:35Z</time></trkpt><trkpt lat="45.797395083386505" lon="8.944747096082207"><ele>420.0</ele><time>2026-04-11T09:46:37Z</time></trkpt><trkpt lat="45.79733169044059" lon="8.944807445466655"><ele>420.50000000000006</ele><time>2026-04-11T09:46:40Z</time></trkpt><trkpt lat="45.79730601921264" lon="8.944890089837632"><ele>421.0</ele><time>2026-04-11T09:46:42Z</time></trkpt><trkpt lat="45.79726311132735" lon="8.944980838435123"><ele>419.6666666666667</ele><time>2026-04-11T09:46:44.001Z</time></trkpt><trkpt lat="45.79722188155516" lon="8.945063254498457"><ele>418.33333333333337</ele><time>2026-04-11T09:46:46.001Z</time></trkpt><trkpt lat="45.79717836135167" lon="8.94514522730437"><ele>417.0</ele><time>2026-04-11T09:46:48.001Z</time></trkpt><trkpt lat="45.7971147573999" lon="8.94523459489637"><ele>415.66666666666663</ele><time>2026-04-11T09:46:50.001Z</time></trkpt><trkpt lat="45.7970781919891" lon="8.945310651618147"><ele>414.3333333333333</ele><time>2026-04-11T09:46:52.001Z</time></trkpt><trkpt lat="45.79701247795142" lon="8.945402325554388"><ele>413.0</ele><time>2026-04-11T09:46:54.001Z</time></trkpt><trkpt lat="45.79696834251484" lon="8.945499681566572"><ele>412.99999999999994</ele><time>2026-04-11T09:46:56.001Z</time></trkpt><trkpt lat="45.79692994240675" lon="8.945573445933082"><ele>413.0</ele><time>2026-04-11T09:46:58.001Z</time></trkpt><trkpt lat="45.79687031034773" lon="8.945625202736384"><ele>413.0</ele><time>2026-04-11T09:47:00.001Z</time></trkpt><trkpt lat="45.79681783502636" lon="8.945729996176235"><ele>413.0</ele><time>2026-04-11T09:47:02.001Z</time></trkpt><trkpt lat="45.796772114587206" lon="8.945800849402614"><ele>412.99999999999994</ele><time>2026-04-11T09:47:04.001Z</time></trkpt><trkpt lat="45.796690314937514" lon="8.945876829442428"><ele>413.0</ele><time>2026-04-11T09:47:07.999Z</time></trkpt><trkpt lat="45.796635962822585" lon="8.945993466049105"><ele>413.66666666666663</ele><time>2026-04-11T09:47:09.999Z</time></trkpt><trkpt lat="45.79657649156672" lon="8.946082933628736"><ele>414.3333333333333</ele><time>2026-04-11T09:47:13Z</time></trkpt><trkpt lat="45.79651103578324" lon="8.946170831659817"><ele>415.0</ele><time>2026-04-11T09:47:16Z</time></trkpt><trkpt lat="45.79644458283743" lon="8.946267107354025"><ele>415.66666666666663</ele><time>2026-04-11T09:47:19Z</time></trkpt><trkpt lat="45.796377286051225" lon="8.946356077768243"><ele>416.3333333333333</ele><time>2026-04-11T09:47:22Z</time></trkpt><trkpt lat="45.79630917176308" lon="8.94642231058686"><ele>417.0</ele><time>2026-04-11T09:47:25Z</time></trkpt><trkpt lat="45.796242597323854" lon="8.946507126165088"><ele>417.0</ele><time>2026-04-11T09:47:28Z</time></trkpt><trkpt lat="45.79618688641035" lon="8.946569425424775"><ele>417.0</ele><time>2026-04-11T09:47:30Z</time></trkpt><trkpt lat="45.79612341427738" lon="8.94666218015368"><ele>417.0</ele><time>2026-04-11T09:47:33Z</time></trkpt><trkpt lat="45.79608161304194" lon="8.946732799784055"><ele>417.0</ele><time>2026-04-11T09:47:35Z</time></trkpt><trkpt lat="45.796027759514615" lon="8.946809145698804"><ele>417.0</ele><time>2026-04-11T09:47:37Z</time></trkpt><trkpt lat="45.79598590353155" lon="8.9468831417594"><ele>417.0</ele><time>2026-04-11T09:47:39Z</time></trkpt><trkpt lat="45.7959135338396" lon="8.946972953600898"><ele>417.0</ele><time>2026-04-11T09:47:43Z</time></trkpt><trkpt lat="45.79584610475989" lon="8.94703966052234"><ele>417.0</ele><time>2026-04-11T09:47:46Z</time></trkpt><trkpt lat="45.79580680722085" lon="8.947110994344952"><ele>417.0</ele><time>2026-04-11T09:47:48Z</time></trkpt><trkpt lat="45.79574659831887" lon="8.947205129681647"><ele>417.0</ele><time>2026-04-11T09:47:51Z</time></trkpt><trkpt lat="45.7956885242803" lon="8.94726699410156"><ele>417.0</ele><time>2026-04-11T09:47:54Z</time></trkpt><trkpt lat="45.795642302504824" lon="8.947387341637329"><ele>417.0</ele><time>2026-04-11T09:47:56Z</time></trkpt><trkpt lat="45.79558903053203" lon="8.947438820913703"><ele>417.0</ele><time>2026-04-11T09:47:59Z</time></trkpt><trkpt lat="45.79553735133971" lon="8.947355787094367"><ele>417.0</ele><time>2026-04-11T09:48:03Z</time></trkpt><trkpt lat="45.7954697241175" lon="8.94731182812436"><ele>417.0</ele><time>2026-04-11T09:48:06Z</time></trkpt><trkpt lat="45.79540697009742" lon="8.94725235306929"><ele>417.0</ele><time>2026-04-11T09:48:09Z</time></trkpt><trkpt lat="45.79532825796548" lon="8.947211742833632"><ele>417.0</ele><time>2026-04-11T09:48:13Z</time></trkpt><trkpt lat="45.795261979020104" lon="8.947190506231253"><ele>417.0</ele><time>2026-04-11T09:48:18Z</time></trkpt><trkpt lat="45.795207069487496" lon="8.947242037484648"><ele>417.0</ele><time>2026-04-11T09:48:20Z</time></trkpt><trkpt lat="45.79513423920667" lon="8.94730318942317"><ele>416.8333333333333</ele><time>2026-04-11T09:48:23Z</time></trkpt><trkpt lat="45.795078470752316" lon="8.947380606666416"><ele>416.66666666666663</ele><time>2026-04-11T09:48:26Z</time></trkpt><trkpt lat="45.79501139278242" lon="8.947449511330426"><ele>416.5</ele><time>2026-04-11T09:48:29.001Z</time></trkpt><trkpt lat="45.79495086889326" lon="8.947523524033368"><ele>416.3333333333333</ele><time>2026-04-11T09:48:32.001Z</time></trkpt><trkpt lat="45.79489772826165" lon="8.94758000695223"><ele>416.16666666666663</ele><time>2026-04-11T09:48:35.001Z</time></trkpt><trkpt lat="45.794842379526195" lon="8.9476314157201"><ele>416.0</ele><time>2026-04-11T09:48:37.001Z</time></trkpt><trkpt lat="45.7947693182017" lon="8.94767346638091"><ele>416.0</ele><time>2026-04-11T09:48:41.001Z</time></trkpt><trkpt lat="45.7947055537815" lon="8.947723815808152"><ele>416.0</ele><time>2026-04-11T09:48:44.001Z</time></trkpt><trkpt lat="45.79464871839799" lon="8.947763047184575"><ele>416.0</ele><time>2026-04-11T09:48:47.001Z</time></trkpt><trkpt lat="45.79459299001521" lon="8.947824047280855"><ele>416.0</ele><time>2026-04-11T09:48:50.001Z</time></trkpt><trkpt lat="45.79453494735343" lon="8.947886600976178"><ele>416.0</ele><time>2026-04-11T09:48:53.001Z</time></trkpt><trkpt lat="45.79448005088075" lon="8.947947120761041"><ele>416.0</ele><time>2026-04-11T09:48:56.001Z</time></trkpt><trkpt lat="45.79442078825183" lon="8.9480070570554"><ele>416.0</ele><time>2026-04-11T09:48:59.001Z</time></trkpt><trkpt lat="45.79436330283405" lon="8.948059779075038"><ele>415.57142857142856</ele><time>2026-04-11T09:49:02.001Z</time></trkpt><trkpt lat="45.79430477082001" lon="8.948098866108278"><ele>415.14285714285717</ele><time>2026-04-11T09:49:06.001Z</time></trkpt><trkpt lat="45.79422757993293" lon="8.94814942341481"><ele>414.7142857142857</ele><time>2026-04-11T09:49:09.001Z</time></trkpt><trkpt lat="45.7941710849201" lon="8.948211688064928"><ele>414.2857142857143</ele><time>2026-04-11T09:49:12.001Z</time></trkpt><trkpt lat="45.79410707057599" lon="8.948236517553482"><ele>413.8571428571429</ele><time>2026-04-11T09:49:15Z</time></trkpt><trkpt lat="45.79403445761509" lon="8.948280201490633"><ele>413.42857142857144</ele><time>2026-04-11T09:49:18Z</time></trkpt><trkpt lat="45.793965253031274" lon="8.94833275543104"><ele>413.0</ele><time>2026-04-11T09:49:21Z</time></trkpt><trkpt lat="45.79391090192472" lon="8.948418314540593"><ele>412.99999999999994</ele><time>2026-04-11T09:49:24Z</time></trkpt><trkpt lat="45.79383695442488" lon="8.948456911378676"><ele>413.0</ele><time>2026-04-11T09:49:27Z</time></trkpt><trkpt lat="45.79375757044225" lon="8.948549629673964"><ele>413.0</ele><time>2026-04-11T09:49:29Z</time></trkpt><trkpt lat="45.793707203853174" lon="8.94862026170125"><ele>413.0</ele><time>2026-04-11T09:49:31Z</time></trkpt><trkpt lat="45.79362904778099" lon="8.948679225351965"><ele>412.99999999999994</ele><time>2026-04-11T09:49:34Z</time></trkpt><trkpt lat="45.79357765878709" lon="8.948733466260384"><ele>413.0</ele><time>2026-04-11T09:49:36Z</time></trkpt><trkpt lat="45.79350342206783" lon="8.948797320069676"><ele>414.3333333333333</ele><time>2026-04-11T09:49:39Z</time></trkpt><trkpt lat="45.79342545377927" lon="8.948882322853464"><ele>415.66666666666663</ele><time>2026-04-11T09:49:42Z</time></trkpt><trkpt lat="45.793358584469" lon="8.948938524426085"><ele>417.0</ele><time>2026-04-11T09:49:45Z</time></trkpt><trkpt lat="45.79328701449834" lon="8.94905158910621"><ele>418.33333333333337</ele><time>2026-04-11T09:49:48Z</time></trkpt><trkpt lat="45.79322591546793" lon="8.94908511782992"><ele>419.6666666666667</ele><time>2026-04-11T09:49:50Z</time></trkpt><trkpt lat="45.79314950413891" lon="8.949138517462474"><ele>421.0</ele><time>2026-04-11T09:49:53Z</time></trkpt><trkpt lat="45.79308616003061" lon="8.949194151783027"><ele>419.33333333333337</ele><time>2026-04-11T09:49:56Z</time></trkpt><trkpt lat="45.793021178697096" lon="8.949260186253063"><ele>417.6666666666667</ele><time>2026-04-11T09:49:58Z</time></trkpt><trkpt lat="45.792962050553655" lon="8.949310128057059"><ele>416.0</ele><time>2026-04-11T09:50:00Z</time></trkpt><trkpt lat="45.79288914936051" lon="8.949379192812886"><ele>414.33333333333337</ele><time>2026-04-11T09:50:03Z</time></trkpt><trkpt lat="45.79283576981924" lon="8.94943366643243"><ele>412.6666666666667</ele><time>2026-04-11T09:50:05Z</time></trkpt><trkpt lat="45.79277261224983" lon="8.949539482042056"><ele>411.0</ele><time>2026-04-11T09:50:08Z</time></trkpt><trkpt lat="45.792689629403924" lon="8.949643149617605"><ele>412.3333333333333</ele><time>2026-04-11T09:50:12Z</time></trkpt><trkpt lat="45.792637907980016" lon="8.949716701147665"><ele>413.66666666666663</ele><time>2026-04-11T09:50:15Z</time></trkpt><trkpt lat="45.79255919647752" lon="8.949781562222022"><ele>415.0</ele><time>2026-04-11T09:50:18Z</time></trkpt><trkpt lat="45.79249562491164" lon="8.94984992664914"><ele>416.3333333333333</ele><time>2026-04-11T09:50:21Z</time></trkpt><trkpt lat="45.79243851107784" lon="8.949898312223363"><ele>417.66666666666663</ele><time>2026-04-11T09:50:23Z</time></trkpt><trkpt lat="45.79238552890142" lon="8.94994757407504"><ele>419.0</ele><time>2026-04-11T09:50:25.001Z</time></trkpt><trkpt lat="45.79230694561539" lon="8.950002430391123"><ele>418.66666666666663</ele><time>2026-04-11T09:50:28.001Z</time></trkpt><trkpt lat="45.79223952244423" lon="8.950073022477772"><ele>418.3333333333333</ele><time>2026-04-11T09:50:31.001Z</time></trkpt><trkpt lat="45.79218376670717" lon="8.95012207668548"><ele>418.0</ele><time>2026-04-11T09:50:33.001Z</time></trkpt><trkpt lat="45.7921107777139" lon="8.950211170153253"><ele>417.66666666666663</ele><time>2026-04-11T09:50:36.001Z</time></trkpt><trkpt lat="45.79206174481737" lon="8.950268382860314"><ele>417.3333333333333</ele><time>2026-04-11T09:50:38.001Z</time></trkpt><trkpt lat="45.7920000247846" lon="8.950317811616141"><ele>417.0</ele><time>2026-04-11T09:50:41.001Z</time></trkpt><trkpt lat="45.791920166826394" lon="8.950386246313048"><ele>417.0</ele><time>2026-04-11T09:50:44.001Z</time></trkpt><trkpt lat="45.791854423732325" lon="8.950454920816824"><ele>417.0</ele><time>2026-04-11T09:50:47.001Z</time></trkpt><trkpt lat="45.79180531494779" lon="8.950513538442674"><ele>417.0</ele><time>2026-04-11T09:50:49.001Z</time></trkpt><trkpt lat="45.791750160344804" lon="8.950574069966214"><ele>417.0</ele><time>2026-04-11T09:50:52.001Z</time></trkpt><trkpt lat="45.79170393646626" lon="8.95067476990411"><ele>417.0</ele><time>2026-04-11T09:50:55.001Z</time></trkpt><trkpt lat="45.79167715276838" lon="8.95076590652665"><ele>417.0</ele><time>2026-04-11T09:50:57.001Z</time></trkpt><trkpt lat="45.79164451568597" lon="8.950848092134688"><ele>417.0</ele><time>2026-04-11T09:50:59.001Z</time></trkpt><trkpt lat="45.791594959729586" lon="8.950940455811882"><ele>417.5</ele><time>2026-04-11T09:51:02.001Z</time></trkpt><trkpt lat="45.79153959155021" lon="8.951019821991087"><ele>418.0</ele><time>2026-04-11T09:51:05.001Z</time></trkpt><trkpt lat="45.791479152003895" lon="8.951144034945186"><ele>418.5</ele><time>2026-04-11T09:51:08.001Z</time></trkpt><trkpt lat="45.7914392142163" lon="8.95122235119272"><ele>419.0</ele><time>2026-04-11T09:51:10.001Z</time></trkpt><trkpt lat="45.79139183927435" lon="8.951299077120833"><ele>419.5</ele><time>2026-04-11T09:51:12.001Z</time></trkpt><trkpt lat="45.79134826256406" lon="8.95140899636774"><ele>420.0</ele><time>2026-04-11T09:51:15.001Z</time></trkpt><trkpt lat="45.791280613718556" lon="8.951500723391577"><ele>420.0</ele><time>2026-04-11T09:51:18.001Z</time></trkpt><trkpt lat="45.79123199590418" lon="8.95159084382871"><ele>420.0</ele><time>2026-04-11T09:51:20Z</time></trkpt><trkpt lat="45.79118522512304" lon="8.951657208590738"><ele>420.0</ele><time>2026-04-11T09:51:22Z</time></trkpt><trkpt lat="45.79113342511942" lon="8.951749415548994"><ele>420.0</ele><time>2026-04-11T09:51:25Z</time></trkpt><trkpt lat="45.79106984687105" lon="8.951836451535002"><ele>420.0</ele><time>2026-04-11T09:51:28Z</time></trkpt><trkpt lat="45.79101029795057" lon="8.951913509039121"><ele>420.0</ele><time>2026-04-11T09:51:31Z</time></trkpt><trkpt lat="45.790959504580975" lon="8.952002489036252"><ele>419.85714285714283</ele><time>2026-04-11T09:51:34Z</time></trkpt><trkpt lat="45.79090971133421" lon="8.952090281315083"><ele>419.7142857142857</ele><time>2026-04-11T09:51:37Z</time></trkpt><trkpt lat="45.79085761224133" lon="8.952149637826183"><ele>419.57142857142856</ele><time>2026-04-11T09:51:41Z</time></trkpt><trkpt lat="45.79079413827166" lon="8.95211672368914"><ele>419.42857142857144</ele><time>2026-04-11T09:51:44Z</time></trkpt><trkpt lat="45.79075065580707" lon="8.952029910572639"><ele>419.2857142857143</ele><time>2026-04-11T09:51:48Z</time></trkpt><trkpt lat="45.790717728937366" lon="8.951943970439567"><ele>419.1428571428571</ele><time>2026-04-11T09:51:53Z</time></trkpt><trkpt lat="45.790675792196396" lon="8.95185870487505"><ele>419.0</ele><time>2026-04-11T09:51:57Z</time></trkpt><trkpt lat="45.790639850558755" lon="8.951772757362694"><ele>419.4285714285714</ele><time>2026-04-11T09:52:01Z</time></trkpt><trkpt lat="45.790609561308734" lon="8.951677637666346"><ele>419.85714285714283</ele><time>2026-04-11T09:52:05Z</time></trkpt><trkpt lat="45.79058147666112" lon="8.951583434381536"><ele>420.2857142857143</ele><time>2026-04-11T09:52:09Z</time></trkpt><trkpt lat="45.79054781277072" lon="8.951495704739497"><ele>420.71428571428567</ele><time>2026-04-11T09:52:13Z</time></trkpt><trkpt lat="45.790503797995626" lon="8.951399273255781"><ele>421.14285714285717</ele><time>2026-04-11T09:52:17Z</time></trkpt><trkpt lat="45.790462046938366" lon="8.951321764474473"><ele>421.57142857142856</ele><time>2026-04-11T09:52:21Z</time></trkpt><trkpt lat="45.79041394480909" lon="8.951243903963153"><ele>422.0</ele><time>2026-04-11T09:52:25Z</time></trkpt><trkpt lat="45.79036828284122" lon="8.951172041169258"><ele>422.0</ele><time>2026-04-11T09:52:29.001Z</time></trkpt><trkpt lat="45.790330314897055" lon="8.951088350844678"><ele>422.0</ele><time>2026-04-11T09:52:33.001Z</time></trkpt><trkpt lat="45.79026006848076" lon="8.951026134710887"><ele>422.0</ele><time>2026-04-11T09:52:38.001Z</time></trkpt><trkpt lat="45.7901988076924" lon="8.950959227183935"><ele>422.0</ele><time>2026-04-11T09:52:42.001Z</time></trkpt><trkpt lat="45.79013730765601" lon="8.950925354465841"><ele>422.0</ele><time>2026-04-11T09:52:46.001Z</time></trkpt><trkpt lat="45.790067984713" lon="8.950860971122147"><ele>422.0</ele><time>2026-04-11T09:52:50.001Z</time></trkpt><trkpt lat="45.79000757868617" lon="8.950826238838514"><ele>422.0</ele><time>2026-04-11T09:52:53.001Z</time></trkpt><trkpt lat="45.78994153829722" lon="8.9507626364652"><ele>422.7142857142857</ele><time>2026-04-11T09:52:56.001Z</time></trkpt><trkpt lat="45.789889077656994" lon="8.950701532405645"><ele>423.42857142857144</ele><time>2026-04-11T09:52:58.001Z</time></trkpt><trkpt lat="45.789825794504075" lon="8.950616627632284"><ele>424.1428571428571</ele><time>2026-04-11T09:53:01.001Z</time></trkpt><trkpt lat="45.78978480462921" lon="8.950546249252124"><ele>424.8571428571429</ele><time>2026-04-11T09:53:03.001Z</time></trkpt><trkpt lat="45.78972406752439" lon="8.950446803610967"><ele>425.57142857142856</ele><time>2026-04-11T09:53:06.001Z</time></trkpt><trkpt lat="45.78971030640848" lon="8.950355218301189"><ele>426.2857142857143</ele><time>2026-04-11T09:53:08.001Z</time></trkpt><trkpt lat="45.78970731025973" lon="8.950257240803339"><ele>427.0</ele><time>2026-04-11T09:53:10.001Z</time></trkpt><trkpt lat="45.78969304842862" lon="8.950148169153671"><ele>427.50000000000006</ele><time>2026-04-11T09:53:12.001Z</time></trkpt><trkpt lat="45.78967345976456" lon="8.950032036922815"><ele>428.0</ele><time>2026-04-11T09:53:14.001Z</time></trkpt><trkpt lat="45.78965710297673" lon="8.949913998365473"><ele>428.5</ele><time>2026-04-11T09:53:16.001Z</time></trkpt><trkpt lat="45.78964252179739" lon="8.94979769327479"><ele>429.0</ele><time>2026-04-11T09:53:18.001Z</time></trkpt><trkpt lat="45.78962136895799" lon="8.949688121763774"><ele>429.50000000000006</ele><time>2026-04-11T09:53:20.001Z</time></trkpt><trkpt lat="45.789597711974864" lon="8.949594951645002"><ele>430.0</ele><time>2026-04-11T09:53:22.001Z</time></trkpt><trkpt lat="45.78955675215701" lon="8.949475911387154"><ele>430.00000000000006</ele><time>2026-04-11T09:53:25Z</time></trkpt><trkpt lat="45.78951566294195" lon="8.949401620643256"><ele>430.0</ele><time>2026-04-11T09:53:27Z</time></trkpt><trkpt lat="45.78947519107441" lon="8.94930773405077"><ele>430.0</ele><time>2026-04-11T09:53:29Z</time></trkpt><trkpt lat="45.78943062619547" lon="8.949204829602433"><ele>430.0</ele><time>2026-04-11T09:53:31Z</time></trkpt><trkpt lat="45.789381028115066" lon="8.949100255993297"><ele>430.00000000000006</ele><time>2026-04-11T09:53:33Z</time></trkpt><trkpt lat="45.78933481787496" lon="8.948984437246303"><ele>430.0</ele><time>2026-04-11T09:53:35Z</time></trkpt><trkpt lat="45.78930320316765" lon="8.948856931009054"><ele>429.1666666666667</ele><time>2026-04-11T09:53:37Z</time></trkpt><trkpt lat="45.78928457725316" lon="8.948732978188747"><ele>428.33333333333337</ele><time>2026-04-11T09:53:39Z</time></trkpt><trkpt lat="45.78926820218457" lon="8.948620839307406"><ele>427.5</ele><time>2026-04-11T09:53:41Z</time></trkpt><trkpt lat="45.78925175233925" lon="8.948503237562603"><ele>426.66666666666663</ele><time>2026-04-11T09:53:43Z</time></trkpt><trkpt lat="45.7892381616489" lon="8.948389750085616"><ele>425.8333333333333</ele><time>2026-04-11T09:53:45Z</time></trkpt><trkpt lat="45.789225545175285" lon="8.948275677187912"><ele>425.0</ele><time>2026-04-11T09:53:47Z</time></trkpt><trkpt lat="45.78921242135753" lon="8.948164666752918"><ele>424.99999999999994</ele><time>2026-04-11T09:53:49Z</time></trkpt><trkpt lat="45.78920076455913" lon="8.948049295234664"><ele>425.0</ele><time>2026-04-11T09:53:51Z</time></trkpt><trkpt lat="45.789183840887986" lon="8.947938337379378"><ele>425.0</ele><time>2026-04-11T09:53:53Z</time></trkpt><trkpt lat="45.78916840368087" lon="8.94782874041782"><ele>425.0</ele><time>2026-04-11T09:53:55Z</time></trkpt><trkpt lat="45.789155507988674" lon="8.947721289098123"><ele>424.99999999999994</ele><time>2026-04-11T09:53:57Z</time></trkpt><trkpt lat="45.78914123571626" lon="8.947613997252901"><ele>425.0</ele><time>2026-04-11T09:53:59Z</time></trkpt><trkpt lat="45.789124990662714" lon="8.947511012243318"><ele>425.1428571428571</ele><time>2026-04-11T09:54:01Z</time></trkpt><trkpt lat="45.78911077034001" lon="8.947408636036817"><ele>425.2857142857143</ele><time>2026-04-11T09:54:03Z</time></trkpt><trkpt lat="45.789098337797974" lon="8.947312740537072"><ele>425.42857142857144</ele><time>2026-04-11T09:54:05Z</time></trkpt><trkpt lat="45.78908839243054" lon="8.947202023448497"><ele>425.57142857142856</ele><time>2026-04-11T09:54:08Z</time></trkpt><trkpt lat="45.78902355108399" lon="8.94716215360359"><ele>425.7142857142857</ele><time>2026-04-11T09:54:14Z</time></trkpt><trkpt lat="45.78893638159997" lon="8.947187875572805"><ele>425.85714285714283</ele><time>2026-04-11T09:54:17Z</time></trkpt><trkpt lat="45.788867747237546" lon="8.947209347869435"><ele>426.0</ele><time>2026-04-11T09:54:19Z</time></trkpt><trkpt lat="45.788806219947624" lon="8.947238925584806"><ele>426.0</ele><time>2026-04-11T09:54:20Z</time></trkpt><trkpt lat="45.78872792113217" lon="8.94726967814802"><ele>426.0</ele><time>2026-04-11T09:54:22Z</time></trkpt><trkpt lat="45.7886502758669" lon="8.947292188749937"><ele>426.0</ele><time>2026-04-11T09:54:24Z</time></trkpt><trkpt lat="45.78857098585825" lon="8.947320663156393"><ele>426.0</ele><time>2026-04-11T09:54:26Z</time></trkpt><trkpt lat="45.78850308995431" lon="8.947337000205357"><ele>426.0</ele><time>2026-04-11T09:54:28Z</time></trkpt><trkpt lat="45.78843081435172" lon="8.947360127963364"><ele>426.0</ele><time>2026-04-11T09:54:31Z</time></trkpt><trkpt lat="45.78834819704652" lon="8.947375992323513"><ele>425.6</ele><time>2026-04-11T09:55:51Z</time></trkpt><trkpt lat="45.788285352710915" lon="8.947393763331362"><ele>425.20000000000005</ele><time>2026-04-11T09:55:53Z</time></trkpt><trkpt lat="45.78819290264036" lon="8.947440517163884"><ele>424.79999999999995</ele><time>2026-04-11T09:55:55Z</time></trkpt><trkpt lat="45.788106775758195" lon="8.94752779871456"><ele>424.4</ele><time>2026-04-11T09:55:57Z</time></trkpt><trkpt lat="45.78803963432105" lon="8.947621854215896"><ele>424.0</ele><time>2026-04-11T09:55:59Z</time></trkpt><trkpt lat="45.78793017607972" lon="8.947631536682033"><ele>423.0</ele><time>2026-04-11T09:56:01Z</time></trkpt><trkpt lat="45.787830599161325" lon="8.947695757325654"><ele>422.0</ele><time>2026-04-11T09:56:03Z</time></trkpt><trkpt lat="45.78771955368492" lon="8.947774732969096"><ele>421.0</ele><time>2026-04-11T09:56:05Z</time></trkpt><trkpt lat="45.787639361750855" lon="8.947865898188152"><ele>420.0</ele><time>2026-04-11T09:56:07Z</time></trkpt><trkpt lat="45.78757328248871" lon="8.947888940067749"><ele>419.0</ele><time>2026-04-11T09:56:08Z</time></trkpt><trkpt lat="45.78746310624388" lon="8.947962866161863"><ele>419.0</ele><time>2026-04-11T09:56:10Z</time></trkpt><trkpt lat="45.787363288271365" lon="8.9480408208136"><ele>419.0</ele><time>2026-04-11T09:56:12Z</time></trkpt><trkpt lat="45.787259478854864" lon="8.948116915085247"><ele>419.0</ele><time>2026-04-11T09:56:14Z</time></trkpt><trkpt lat="45.78716196540554" lon="8.94820128410557"><ele>419.0</ele><time>2026-04-11T09:56:16Z</time></trkpt><trkpt lat="45.787058757809874" lon="8.948287868040742"><ele>419.0</ele><time>2026-04-11T09:56:18Z</time></trkpt><trkpt lat="45.78696512569493" lon="8.948396401468681"><ele>419.0</ele><time>2026-04-11T09:56:20Z</time></trkpt><trkpt lat="45.78689345693154" lon="8.948522822215057"><ele>419.0</ele><time>2026-04-11T09:56:22Z</time></trkpt><trkpt lat="45.78682547262618" lon="8.94863852148513"><ele>419.0</ele><time>2026-04-11T09:56:24.001Z</time></trkpt><trkpt lat="45.78675981504432" lon="8.948754019855514"><ele>419.0</ele><time>2026-04-11T09:56:26.001Z</time></trkpt><trkpt lat="45.78670386482932" lon="8.948857359500073"><ele>418.99999999999994</ele><time>2026-04-11T09:56:28.001Z</time></trkpt><trkpt lat="45.786641806550364" lon="8.948951562972438"><ele>419.0</ele><time>2026-04-11T09:56:30.001Z</time></trkpt><trkpt lat="45.78658535756449" lon="8.94905105563916"><ele>419.0</ele><time>2026-04-11T09:56:32.001Z</time></trkpt><trkpt lat="45.78653236285802" lon="8.949127999292294"><ele>419.0</ele><time>2026-04-11T09:56:34.001Z</time></trkpt><trkpt lat="45.78647073197822" lon="8.949226216505231"><ele>418.99999999999994</ele><time>2026-04-11T09:56:36.001Z</time></trkpt><trkpt lat="45.78641587247637" lon="8.949321188760203"><ele>419.0</ele><time>2026-04-11T09:56:38.001Z</time></trkpt><trkpt lat="45.78636056128152" lon="8.949414927657086"><ele>418.49999999999994</ele><time>2026-04-11T09:56:40.001Z</time></trkpt><trkpt lat="45.7863161078448" lon="8.949514872853673"><ele>418.0</ele><time>2026-04-11T09:56:42.001Z</time></trkpt><trkpt lat="45.78626926848282" lon="8.949598858532248"><ele>417.5</ele><time>2026-04-11T09:56:44.001Z</time></trkpt><trkpt lat="45.78622787618244" lon="8.94969324540067"><ele>417.0</ele><time>2026-04-11T09:56:46.001Z</time></trkpt><trkpt lat="45.786191752694414" lon="8.949814390699864"><ele>416.49999999999994</ele><time>2026-04-11T09:56:48.001Z</time></trkpt><trkpt lat="45.78617022407011" lon="8.949952812392308"><ele>416.0</ele><time>2026-04-11T09:56:50.001Z</time></trkpt><trkpt lat="45.78615094307701" lon="8.950098807779124"><ele>416.0</ele><time>2026-04-11T09:56:52.001Z</time></trkpt><trkpt lat="45.786132065959706" lon="8.950253894234567"><ele>416.0</ele><time>2026-04-11T09:56:54.001Z</time></trkpt><trkpt lat="45.78611047180161" lon="8.95041562052856"><ele>416.0</ele><time>2026-04-11T09:56:56.001Z</time></trkpt><trkpt lat="45.78609191317048" lon="8.950549316614905"><ele>416.0</ele><time>2026-04-11T09:56:58.001Z</time></trkpt><trkpt lat="45.78608885219283" lon="8.950680455932043"><ele>416.0</ele><time>2026-04-11T09:57:00.001Z</time></trkpt><trkpt lat="45.786074525709225" lon="8.950828376816249"><ele>415.66666666666663</ele><time>2026-04-11T09:57:02.001Z</time></trkpt><trkpt lat="45.786055120195876" lon="8.95099175648264"><ele>415.3333333333333</ele><time>2026-04-11T09:57:04.001Z</time></trkpt><trkpt lat="45.78603482893674" lon="8.951166025781765"><ele>415.0</ele><time>2026-04-11T09:57:06.001Z</time></trkpt><trkpt lat="45.78602302788916" lon="8.951258347853855"><ele>414.66666666666663</ele><time>2026-04-11T09:57:07.001Z</time></trkpt><trkpt lat="45.786005184886115" lon="8.951345974831979"><ele>414.3333333333333</ele><time>2026-04-11T09:57:08.001Z</time></trkpt><trkpt lat="45.78599650333773" lon="8.951443194264051"><ele>414.0</ele><time>2026-04-11T09:57:09.001Z</time></trkpt><trkpt lat="45.7859933211873" lon="8.95153768894954"><ele>413.79999999999995</ele><time>2026-04-11T09:57:10.001Z</time></trkpt><trkpt lat="45.78597836645208" lon="8.951687995236812"><ele>413.59999999999997</ele><time>2026-04-11T09:57:12.001Z</time></trkpt><trkpt lat="45.78596340295193" lon="8.951803311181854"><ele>413.4</ele><time>2026-04-11T09:57:15.001Z</time></trkpt><trkpt lat="45.785834246107335" lon="8.951819460211578"><ele>413.2</ele><time>2026-04-11T09:57:17.001Z</time></trkpt><trkpt lat="45.78574978694888" lon="8.951853528507376"><ele>413.0</ele><time>2026-04-11T09:57:19.001Z</time></trkpt><trkpt lat="45.785662707253785" lon="8.95189434019133"><ele>412.99999999999994</ele><time>2026-04-11T09:57:21.001Z</time></trkpt><trkpt lat="45.785579828503096" lon="8.951925282753953"><ele>413.0</ele><time>2026-04-11T09:57:23.001Z</time></trkpt><trkpt lat="45.785497089271566" lon="8.951956370862039"><ele>413.0</ele><time>2026-04-11T09:57:25.001Z</time></trkpt><trkpt lat="45.78541279362279" lon="8.951949109907199"><ele>413.0</ele><time>2026-04-11T09:57:27.001Z</time></trkpt><trkpt lat="45.785377534195455" lon="8.951864127074758"><ele>412.99999999999994</ele><time>2026-04-11T09:57:43Z</time></trkpt><trkpt lat="45.78533809832115" lon="8.95173761056124"><ele>413.0</ele><time>2026-04-11T09:57:46Z</time></trkpt><trkpt lat="45.785300464559434" lon="8.951634862119482"><ele>412.99999999999994</ele><time>2026-04-11T09:57:48Z</time></trkpt><trkpt lat="45.78526912058044" lon="8.951534727574115"><ele>413.0</ele><time>2026-04-11T09:57:50Z</time></trkpt><trkpt lat="45.785228498727044" lon="8.951437205973066"><ele>413.0</ele><time>2026-04-11T09:57:52Z</time></trkpt><trkpt lat="45.78519664326245" lon="8.95134124629005"><ele>413.0</ele><time>2026-04-11T09:57:54Z</time></trkpt><trkpt lat="45.78516875872662" lon="8.95124799276313"><ele>412.99999999999994</ele><time>2026-04-11T09:57:56Z</time></trkpt><trkpt lat="45.78510707721303" lon="8.951162107779668"><ele>413.0</ele><time>2026-04-11T09:57:58Z</time></trkpt><trkpt lat="45.785010279557575" lon="8.95116293875315"><ele>413.14285714285717</ele><time>2026-04-11T09:58:01Z</time></trkpt><trkpt lat="45.784940954299685" lon="8.951165636702703"><ele>413.2857142857143</ele><time>2026-04-11T09:58:03Z</time></trkpt><trkpt lat="45.78487106185159" lon="8.951168339433238"><ele>413.42857142857144</ele><time>2026-04-11T09:58:05Z</time></trkpt><trkpt lat="45.78480456088601" lon="8.951177650368518"><ele>413.57142857142856</ele><time>2026-04-11T09:58:07Z</time></trkpt><trkpt lat="45.78473689881324" lon="8.95117155188119"><ele>413.7142857142857</ele><time>2026-04-11T09:58:09Z</time></trkpt><trkpt lat="45.784670324330726" lon="8.951147856746369"><ele>413.8571428571429</ele><time>2026-04-11T09:58:11Z</time></trkpt><trkpt lat="45.78460297966435" lon="8.951134226304452"><ele>414.0</ele><time>2026-04-11T09:58:13Z</time></trkpt><trkpt lat="45.78452680008861" lon="8.951116175924035"><ele>414.0</ele><time>2026-04-11T09:58:15Z</time></trkpt><trkpt lat="45.78444972569868" lon="8.951089877365117"><ele>414.0</ele><time>2026-04-11T09:58:17Z</time></trkpt><trkpt lat="45.78437610869106" lon="8.951048342389289"><ele>414.0</ele><time>2026-04-11T09:58:19Z</time></trkpt><trkpt lat="45.7843144856436" lon="8.95102372522272"><ele>414.0</ele><time>2026-04-11T09:58:21Z</time></trkpt><trkpt lat="45.78423224760388" lon="8.950987624219263"><ele>414.0</ele><time>2026-04-11T09:58:23Z</time></trkpt><trkpt lat="45.78416661616138" lon="8.950934081856971"><ele>414.0</ele><time>2026-04-11T09:58:25Z</time></trkpt><trkpt lat="45.784103845617146" lon="8.950861603473156"><ele>414.1666666666667</ele><time>2026-04-11T09:58:27Z</time></trkpt><trkpt lat="45.784031664157524" lon="8.95079958317421"><ele>414.33333333333337</ele><time>2026-04-11T09:58:29.001Z</time></trkpt><trkpt lat="45.78395610159507" lon="8.950760942247056"><ele>414.5</ele><time>2026-04-11T09:58:31.001Z</time></trkpt><trkpt lat="45.78387380822034" lon="8.950761798066415"><ele>414.6666666666667</ele><time>2026-04-11T09:58:33.001Z</time></trkpt><trkpt lat="45.78380632057721" lon="8.950822646821864"><ele>414.83333333333337</ele><time>2026-04-11T09:58:35.001Z</time></trkpt><trkpt lat="45.78374169100664" lon="8.950872303663779"><ele>415.0</ele><time>2026-04-11T09:58:37.001Z</time></trkpt><trkpt lat="45.783692216202645" lon="8.950951771915207"><ele>415.1666666666667</ele><time>2026-04-11T09:58:39.001Z</time></trkpt><trkpt lat="45.78361328654296" lon="8.951018100716963"><ele>415.33333333333337</ele><time>2026-04-11T09:58:42.001Z</time></trkpt><trkpt lat="45.783553009027784" lon="8.951075729959513"><ele>415.5</ele><time>2026-04-11T09:58:46.001Z</time></trkpt><trkpt lat="45.78348112566622" lon="8.951151277804055"><ele>415.66666666666663</ele><time>2026-04-11T09:58:49.001Z</time></trkpt><trkpt lat="45.78340805084868" lon="8.95116589557147"><ele>415.8333333333333</ele><time>2026-04-11T09:58:53.001Z</time></trkpt><trkpt lat="45.78333521154001" lon="8.9511969880007"><ele>416.0</ele><time>2026-04-11T09:58:56.001Z</time></trkpt><trkpt lat="45.78326822973837" lon="8.951226805769453"><ele>416.0</ele><time>2026-04-11T09:58:58.001Z</time></trkpt><trkpt lat="45.78319634701993" lon="8.951258807087518"><ele>416.0</ele><time>2026-04-11T09:59:00.001Z</time></trkpt><trkpt lat="45.78312229495893" lon="8.95129177418694"><ele>416.0</ele><time>2026-04-11T09:59:02.001Z</time></trkpt><trkpt lat="45.78302583623654" lon="8.951334716459879"><ele>416.0</ele><time>2026-04-11T09:59:05.001Z</time></trkpt><trkpt lat="45.783082619905905" lon="8.951780642789645"><ele>416.0</ele><time>2026-04-11T09:59:06.001Z</time></trkpt><trkpt lat="45.783022229081375" lon="8.951809454918642"><ele>416.0</ele><time>2026-04-11T09:59:08.001Z</time></trkpt><trkpt lat="45.78295956840544" lon="8.951831373198829"><ele>416.0</ele><time>2026-04-11T09:59:11.001Z</time></trkpt><trkpt lat="45.78288447333794" lon="8.95184846051234"><ele>416.0</ele><time>2026-04-11T09:59:13.001Z</time></trkpt><trkpt lat="45.782820333379526" lon="8.951842225084219"><ele>416.0</ele><time>2026-04-11T09:59:15.001Z</time></trkpt><trkpt lat="45.78274942523511" lon="8.951862438644085"><ele>416.0</ele><time>2026-04-11T09:59:17.001Z</time></trkpt><trkpt lat="45.78267754939278" lon="8.951906298833539"><ele>416.0</ele><time>2026-04-11T09:59:19.001Z</time></trkpt><trkpt lat="45.78259021343768" lon="8.951887242576726"><ele>415.99999999999994</ele><time>2026-04-11T09:59:22.001Z</time></trkpt><trkpt lat="45.78249297169452" lon="8.95189561773367"><ele>416.0</ele><time>2026-04-11T09:59:25.001Z</time></trkpt><trkpt lat="45.782399854994345" lon="8.95191334284435"><ele>416.0</ele><time>2026-04-11T09:59:28.001Z</time></trkpt><trkpt lat="45.78233632184384" lon="8.95192677129248"><ele>416.0</ele><time>2026-04-11T09:59:30.001Z</time></trkpt><trkpt lat="45.782263829096095" lon="8.95193684973161"><ele>415.99999999999994</ele><time>2026-04-11T09:59:32.001Z</time></trkpt><trkpt lat="45.78217481699181" lon="8.951984693053094"><ele>416.0</ele><time>2026-04-11T09:59:35.001Z</time></trkpt><trkpt lat="45.78210503557397" lon="8.951994904062714"><ele>415.99999999999994</ele><time>2026-04-11T09:59:37.001Z</time></trkpt><trkpt lat="45.78202704577359" lon="8.952027399606582"><ele>416.0</ele><time>2026-04-11T09:59:39.001Z</time></trkpt><trkpt lat="45.781945795714776" lon="8.952071815858798"><ele>416.0</ele><time>2026-04-11T09:59:42.001Z</time></trkpt><trkpt lat="45.781874597756236" lon="8.952112508123285"><ele>416.0</ele><time>2026-04-11T09:59:44Z</time></trkpt><trkpt lat="45.781804916569115" lon="8.952163379423672"><ele>415.99999999999994</ele><time>2026-04-11T09:59:46Z</time></trkpt><trkpt lat="45.78174593701278" lon="8.95222434526915"><ele>416.0</ele><time>2026-04-11T09:59:48Z</time></trkpt><trkpt lat="45.78167857037689" lon="8.952287734576924"><ele>415.99999999999994</ele><time>2026-04-11T09:59:50Z</time></trkpt><trkpt lat="45.7816297196987" lon="8.952348409701377"><ele>416.0</ele><time>2026-04-11T09:59:52Z</time></trkpt><trkpt lat="45.781582517861395" lon="8.952419575412485"><ele>416.0</ele><time>2026-04-11T09:59:54Z</time></trkpt><trkpt lat="45.781501707359816" lon="8.95246469719179"><ele>416.0</ele><time>2026-04-11T09:59:56Z</time></trkpt><trkpt lat="45.781417481403764" lon="8.95248032500272"><ele>415.99999999999994</ele><time>2026-04-11T09:59:59Z</time></trkpt><trkpt lat="45.78134910850318" lon="8.952481845755196"><ele>416.0</ele><time>2026-04-11T10:00:02Z</time></trkpt><trkpt lat="45.78127902718409" lon="8.952567105934358"><ele>415.49999999999994</ele><time>2026-04-11T10:00:05Z</time></trkpt><trkpt lat="45.78121406185769" lon="8.952571109734734"><ele>415.0</ele><time>2026-04-11T10:00:07Z</time></trkpt><trkpt lat="45.78115139682551" lon="8.952662010662142"><ele>414.5</ele><time>2026-04-11T10:00:10Z</time></trkpt><trkpt lat="45.78108722688383" lon="8.952667910164074"><ele>414.0</ele><time>2026-04-11T10:00:12Z</time></trkpt><trkpt lat="45.78101073668838" lon="8.95263014178925"><ele>413.49999999999994</ele><time>2026-04-11T10:00:14Z</time></trkpt><trkpt lat="45.780934227665746" lon="8.952654984421331"><ele>413.0</ele><time>2026-04-11T10:00:19Z</time></trkpt><trkpt lat="45.78085146565716" lon="8.952703604204782"><ele>411.8333333333333</ele><time>2026-04-11T10:00:22Z</time></trkpt><trkpt lat="45.780782525222" lon="8.952756984982349"><ele>410.66666666666663</ele><time>2026-04-11T10:00:25Z</time></trkpt><trkpt lat="45.780710498542064" lon="8.952835781517331"><ele>409.5</ele><time>2026-04-11T10:00:28Z</time></trkpt><trkpt lat="45.78063793293777" lon="8.952877770641452"><ele>408.33333333333337</ele><time>2026-04-11T10:00:31Z</time></trkpt><trkpt lat="45.7805828869924" lon="8.952937180535825"><ele>407.1666666666667</ele><time>2026-04-11T10:00:33Z</time></trkpt><trkpt lat="45.78052798810158" lon="8.953011093997999"><ele>406.0</ele><time>2026-04-11T10:00:35Z</time></trkpt><trkpt lat="45.780485519924405" lon="8.953095172532382"><ele>406.00000000000006</ele><time>2026-04-11T10:00:37Z</time></trkpt><trkpt lat="45.780439940848886" lon="8.953172189925064"><ele>406.0</ele><time>2026-04-11T10:00:39Z</time></trkpt><trkpt lat="45.780396338192375" lon="8.953251041934495"><ele>406.0</ele><time>2026-04-11T10:00:41Z</time></trkpt><trkpt lat="45.78033085403772" lon="8.95331680358973"><ele>406.0</ele><time>2026-04-11T10:00:43Z</time></trkpt><trkpt lat="45.78027669369193" lon="8.953385820723694"><ele>406.00000000000006</ele><time>2026-04-11T10:00:45Z</time></trkpt><trkpt lat="45.78022759651544" lon="8.95348507500345"><ele>406.0</ele><time>2026-04-11T10:00:47Z</time></trkpt><trkpt lat="45.78015587484353" lon="8.953567441020963"><ele>405.50000000000006</ele><time>2026-04-11T10:00:49.001Z</time></trkpt><trkpt lat="45.780101771819474" lon="8.953651954716815"><ele>405.0</ele><time>2026-04-11T10:00:51.001Z</time></trkpt><trkpt lat="45.78004041764419" lon="8.953732669855182"><ele>404.5</ele><time>2026-04-11T10:00:53.001Z</time></trkpt><trkpt lat="45.77996731745909" lon="8.95383062755834"><ele>404.0</ele><time>2026-04-11T10:00:55.001Z</time></trkpt><trkpt lat="45.77990271807787" lon="8.95389344808505"><ele>403.50000000000006</ele><time>2026-04-11T10:00:57.001Z</time></trkpt><trkpt lat="45.779844018018245" lon="8.953947046745927"><ele>403.0</ele><time>2026-04-11T10:00:59.001Z</time></trkpt><trkpt lat="45.77976095383764" lon="8.95402801054069"><ele>403.00000000000006</ele><time>2026-04-11T10:01:02.001Z</time></trkpt><trkpt lat="45.77970264320992" lon="8.954101361195764"><ele>403.0</ele><time>2026-04-11T10:01:04.001Z</time></trkpt><trkpt lat="45.77964289944737" lon="8.954161662174181"><ele>403.0</ele><time>2026-04-11T10:01:06.001Z</time></trkpt><trkpt lat="45.77955782129339" lon="8.954217925721471"><ele>403.0</ele><time>2026-04-11T10:01:09.001Z</time></trkpt><trkpt lat="45.77949424997863" lon="8.954249551243944"><ele>403.00000000000006</ele><time>2026-04-11T10:01:11.001Z</time></trkpt><trkpt lat="45.77941948627302" lon="8.954278382642622"><ele>403.0</ele><time>2026-04-11T10:01:13.001Z</time></trkpt><trkpt lat="45.77934641373692" lon="8.954309055221579"><ele>404.00000000000006</ele><time>2026-04-11T10:01:15.001Z</time></trkpt><trkpt lat="45.779276912346894" lon="8.954333706539387"><ele>405.0</ele><time>2026-04-11T10:01:17.001Z</time></trkpt><trkpt lat="45.77920877844753" lon="8.95438470650841"><ele>406.0</ele><time>2026-04-11T10:01:19.001Z</time></trkpt><trkpt lat="45.77912007279997" lon="8.954427300144188"><ele>407.0</ele><time>2026-04-11T10:01:22.001Z</time></trkpt><trkpt lat="45.77903978794835" lon="8.954448452063465"><ele>408.00000000000006</ele><time>2026-04-11T10:01:24.001Z</time></trkpt><trkpt lat="45.778963175231844" lon="8.95446857135674"><ele>409.0</ele><time>2026-04-11T10:01:26.001Z</time></trkpt><trkpt lat="45.778883563278" lon="8.954526591474439"><ele>409.00000000000006</ele><time>2026-04-11T10:01:28.001Z</time></trkpt><trkpt lat="45.778807579077636" lon="8.95458578292643"><ele>409.0</ele><time>2026-04-11T10:01:30.001Z</time></trkpt><trkpt lat="45.77876330505846" lon="8.954666365499046"><ele>409.0</ele><time>2026-04-11T10:01:32.001Z</time></trkpt><trkpt lat="45.778691057921904" lon="8.954717504558928"><ele>409.0</ele><time>2026-04-11T10:01:34.001Z</time></trkpt><trkpt lat="45.77862880100021" lon="8.954784093309708"><ele>409.00000000000006</ele><time>2026-04-11T10:01:36.001Z</time></trkpt><trkpt lat="45.77855922903053" lon="8.954845949450243"><ele>409.0</ele><time>2026-04-11T10:01:38.001Z</time></trkpt><trkpt lat="45.77847776982862" lon="8.95490860340414"><ele>409.85714285714283</ele><time>2026-04-11T10:01:40.001Z</time></trkpt><trkpt lat="45.77840682849792" lon="8.954954426575938"><ele>410.7142857142857</ele><time>2026-04-11T10:01:42.001Z</time></trkpt><trkpt lat="45.77833685423236" lon="8.954986694106143"><ele>411.57142857142856</ele><time>2026-04-11T10:01:44.001Z</time></trkpt><trkpt lat="45.77824898878255" lon="8.955003541218481"><ele>412.42857142857144</ele><time>2026-04-11T10:01:47.001Z</time></trkpt><trkpt lat="45.778178580722646" lon="8.955023737501909"><ele>413.28571428571433</ele><time>2026-04-11T10:01:49Z</time></trkpt><trkpt lat="45.77810759860101" lon="8.955015618727268"><ele>414.14285714285717</ele><time>2026-04-11T10:01:51Z</time></trkpt><trkpt lat="45.778047142453666" lon="8.95498653185684"><ele>415.0</ele><time>2026-04-11T10:01:53Z</time></trkpt><trkpt lat="45.77797864382175" lon="8.954979226868383"><ele>415.0</ele><time>2026-04-11T10:01:55Z</time></trkpt><trkpt lat="45.7779149817511" lon="8.95500777517944"><ele>415.0</ele><time>2026-04-11T10:01:57Z</time></trkpt><trkpt lat="45.77784627445979" lon="8.955011593334431"><ele>415.0</ele><time>2026-04-11T10:01:59Z</time></trkpt><trkpt lat="45.777780796689086" lon="8.955015294054066"><ele>415.0</ele><time>2026-04-11T10:02:02Z</time></trkpt><trkpt lat="45.777718270851246" lon="8.95503330899777"><ele>415.0</ele><time>2026-04-11T10:02:04Z</time></trkpt><trkpt lat="45.777648573679016" lon="8.955037573883097"><ele>415.0</ele><time>2026-04-11T10:02:07Z</time></trkpt><trkpt lat="45.77757879990025" lon="8.955001479523661"><ele>415.0</ele><time>2026-04-11T10:02:15Z</time></trkpt><trkpt lat="45.777530973942326" lon="8.95491816338721"><ele>415.33333333333337</ele><time>2026-04-11T10:02:18Z</time></trkpt><trkpt lat="45.77748224341027" lon="8.954857040827271"><ele>415.6666666666667</ele><time>2026-04-11T10:02:20Z</time></trkpt><trkpt lat="45.77741437003596" lon="8.954753867891629"><ele>416.0</ele><time>2026-04-11T10:02:23Z</time></trkpt><trkpt lat="45.77736128520845" lon="8.954701905329264"><ele>416.33333333333337</ele><time>2026-04-11T10:02:26Z</time></trkpt><trkpt lat="45.77725560773863" lon="8.954687980052194"><ele>416.6666666666667</ele><time>2026-04-11T10:03:14.001Z</time></trkpt><trkpt lat="45.77719516909641" lon="8.954724168821276"><ele>417.0</ele><time>2026-04-11T10:03:18.001Z</time></trkpt><trkpt lat="45.77715474528155" lon="8.954799437903327"><ele>417.0</ele><time>2026-04-11T10:03:21.001Z</time></trkpt><trkpt lat="45.77711273863005" lon="8.954888643689532"><ele>417.0</ele><time>2026-04-11T10:03:24.001Z</time></trkpt><trkpt lat="45.77703700917816" lon="8.954989852594474"><ele>417.0</ele><time>2026-04-11T10:03:27.001Z</time></trkpt><trkpt lat="45.77699495040539" lon="8.95509769448169"><ele>417.0</ele><time>2026-04-11T10:03:30.001Z</time></trkpt><trkpt lat="45.77695793688832" lon="8.955190962812893"><ele>417.0</ele><time>2026-04-11T10:03:33.001Z</time></trkpt><trkpt lat="45.77689366623326" lon="8.955292247572645"><ele>417.0</ele><time>2026-04-11T10:03:35.001Z</time></trkpt><trkpt lat="45.77683290441043" lon="8.95539357210702"><ele>416.8</ele><time>2026-04-11T10:03:37.001Z</time></trkpt><trkpt lat="45.7767454400121" lon="8.955455597013522"><ele>416.6</ele><time>2026-04-11T10:03:39.001Z</time></trkpt><trkpt lat="45.776664218899356" lon="8.955551595401756"><ele>416.40000000000003</ele><time>2026-04-11T10:03:41.001Z</time></trkpt><trkpt lat="45.77659110933288" lon="8.955622409215518"><ele>416.20000000000005</ele><time>2026-04-11T10:03:43.001Z</time></trkpt><trkpt lat="45.77651680923801" lon="8.955666047699673"><ele>416.0</ele><time>2026-04-11T10:03:45.001Z</time></trkpt><trkpt lat="45.77643554424596" lon="8.955743322051383"><ele>415.99999999999994</ele><time>2026-04-11T10:03:48.001Z</time></trkpt><trkpt lat="45.77634459304359" lon="8.955798398147726"><ele>416.0</ele><time>2026-04-11T10:03:51.001Z</time></trkpt><trkpt lat="45.776269111367974" lon="8.955871356998541"><ele>416.0</ele><time>2026-04-11T10:03:54.001Z</time></trkpt><trkpt lat="45.77620282007197" lon="8.955952500366562"><ele>416.0</ele><time>2026-04-11T10:03:56Z</time></trkpt><trkpt lat="45.77612989421261" lon="8.955972253151133"><ele>415.99999999999994</ele><time>2026-04-11T10:03:59Z</time></trkpt><trkpt lat="45.77608656756303" lon="8.956043955157703"><ele>416.0</ele><time>2026-04-11T10:04:01Z</time></trkpt><trkpt lat="45.77600388870608" lon="8.956147889450609"><ele>414.99999999999994</ele><time>2026-04-11T10:04:03Z</time></trkpt><trkpt lat="45.775914721993644" lon="8.956199071869055"><ele>414.0</ele><time>2026-04-11T10:04:05Z</time></trkpt><trkpt lat="45.775848622727686" lon="8.956233291077941"><ele>413.0</ele><time>2026-04-11T10:04:07Z</time></trkpt><trkpt lat="45.77578713860434" lon="8.956262524034884"><ele>412.0</ele><time>2026-04-11T10:04:09Z</time></trkpt><trkpt lat="45.775699429517246" lon="8.956292998539888"><ele>410.99999999999994</ele><time>2026-04-11T10:04:11Z</time></trkpt><trkpt lat="45.77562424275344" lon="8.9562771798465"><ele>410.0</ele><time>2026-04-11T10:04:16Z</time></trkpt><trkpt lat="45.77553396999655" lon="8.956238865072931"><ele>409.99999999999994</ele><time>2026-04-11T10:04:19Z</time></trkpt><trkpt lat="45.77546021131972" lon="8.956210361389795"><ele>410.0</ele><time>2026-04-11T10:04:21Z</time></trkpt><trkpt lat="45.77535212431133" lon="8.956227634281424"><ele>410.0</ele><time>2026-04-11T10:04:23Z</time></trkpt><trkpt lat="45.77530550457363" lon="8.95613865308571"><ele>410.0</ele><time>2026-04-11T10:04:25Z</time></trkpt><trkpt lat="45.775230339523645" lon="8.956075448590278"><ele>409.99999999999994</ele><time>2026-04-11T10:04:29Z</time></trkpt><trkpt lat="45.775159131342505" lon="8.956087687312186"><ele>410.0</ele><time>2026-04-11T10:04:31Z</time></trkpt><trkpt lat="45.77508608674085" lon="8.956085358860054"><ele>409.7142857142857</ele><time>2026-04-11T10:04:34Z</time></trkpt><trkpt lat="45.77502327038245" lon="8.95605815515148"><ele>409.4285714285714</ele><time>2026-04-11T10:04:37Z</time></trkpt><trkpt lat="45.77495892353461" lon="8.956049348793153"><ele>409.1428571428571</ele><time>2026-04-11T10:04:39Z</time></trkpt><trkpt lat="45.77489409826902" lon="8.956054642476376"><ele>408.8571428571429</ele><time>2026-04-11T10:04:41Z</time></trkpt><trkpt lat="45.77482240268866" lon="8.956090989300641"><ele>408.57142857142856</ele><time>2026-04-11T10:04:43Z</time></trkpt><trkpt lat="45.774746310753045" lon="8.956130211295509"><ele>408.2857142857143</ele><time>2026-04-11T10:04:46Z</time></trkpt><trkpt lat="45.77467881016489" lon="8.95618944980972"><ele>408.0</ele><time>2026-04-11T10:04:48Z</time></trkpt><trkpt lat="45.774596489170605" lon="8.956229032916006"><ele>408.0</ele><time>2026-04-11T10:04:51.001Z</time></trkpt><trkpt lat="45.77452414925828" lon="8.956273527715801"><ele>408.0</ele><time>2026-04-11T10:04:53.001Z</time></trkpt><trkpt lat="45.774452658444105" lon="8.956288489696181"><ele>408.0</ele><time>2026-04-11T10:04:55.001Z</time></trkpt><trkpt lat="45.77438869374484" lon="8.956276676791491"><ele>408.0</ele><time>2026-04-11T10:04:58.001Z</time></trkpt><trkpt lat="45.77430979774884" lon="8.95628163388014"><ele>408.0</ele><time>2026-04-11T10:05:01.001Z</time></trkpt><trkpt lat="45.774236074967206" lon="8.956311785210923"><ele>408.0</ele><time>2026-04-11T10:05:05.001Z</time></trkpt><trkpt lat="45.77417264083918" lon="8.95632175569739"><ele>408.0</ele><time>2026-04-11T10:05:10.001Z</time></trkpt><trkpt lat="45.774104622865586" lon="8.956305705290992"><ele>408.6666666666667</ele><time>2026-04-11T10:05:15.001Z</time></trkpt><trkpt lat="45.77403678346516" lon="8.956324159834937"><ele>409.33333333333337</ele><time>2026-04-11T10:05:18.001Z</time></trkpt><trkpt lat="45.773918050133794" lon="8.956308228711862"><ele>410.0</ele><time>2026-04-11T10:05:23.001Z</time></trkpt><trkpt lat="45.773853565930274" lon="8.956263098511853"><ele>410.6666666666667</ele><time>2026-04-11T10:05:30.001Z</time></trkpt><trkpt lat="45.77378825027627" lon="8.956280388154452"><ele>411.33333333333337</ele><time>2026-04-11T10:05:50.001Z</time></trkpt><trkpt lat="45.77372579326664" lon="8.956318659487277"><ele>412.0</ele><time>2026-04-11T10:05:54.001Z</time></trkpt><trkpt lat="45.77367025524968" lon="8.956365170524418"><ele>411.99999999999994</ele><time>2026-04-11T10:05:59.002Z</time></trkpt><trkpt lat="45.77361965345349" lon="8.95641983353724"><ele>412.0</ele><time>2026-04-11T10:06:03Z</time></trkpt><trkpt lat="45.773555299699524" lon="8.956460336579113"><ele>412.0</ele><time>2026-04-11T10:06:09Z</time></trkpt><trkpt lat="45.77352141844835" lon="8.956543712795916"><ele>412.0</ele><time>2026-04-11T10:06:14Z</time></trkpt><trkpt lat="45.773471776345765" lon="8.956614729141677"><ele>412.0</ele><time>2026-04-11T10:06:18Z</time></trkpt><trkpt lat="45.77344083782638" lon="8.956697410439967"><ele>411.99999999999994</ele><time>2026-04-11T10:06:22Z</time></trkpt><trkpt lat="45.77338458127916" lon="8.956775044099423"><ele>412.0</ele><time>2026-04-11T10:06:27Z</time></trkpt><trkpt lat="45.77332952350898" lon="8.956832890003678"><ele>412.57142857142856</ele><time>2026-04-11T10:06:31Z</time></trkpt><trkpt lat="45.77328212527613" lon="8.956905365682104"><ele>413.1428571428571</ele><time>2026-04-11T10:06:34Z</time></trkpt><trkpt lat="45.773234760949556" lon="8.95696699868174"><ele>413.71428571428567</ele><time>2026-04-11T10:06:37Z</time></trkpt><trkpt lat="45.77318258931819" lon="8.957056615110512"><ele>414.2857142857143</ele><time>2026-04-11T10:06:41Z</time></trkpt><trkpt lat="45.77313066523291" lon="8.957130034445544"><ele>414.8571428571429</ele><time>2026-04-11T10:06:43Z</time></trkpt><trkpt lat="45.77309044021136" lon="8.957219141010231"><ele>415.4285714285714</ele><time>2026-04-11T10:06:45Z</time></trkpt><trkpt lat="45.773049300788294" lon="8.957307245919202"><ele>416.0</ele><time>2026-04-11T10:06:49Z</time></trkpt><trkpt lat="45.77301522295841" lon="8.957389909053376"><ele>416.0</ele><time>2026-04-11T10:06:52Z</time></trkpt><trkpt lat="45.7730006993585" lon="8.95748775883078"><ele>416.0</ele><time>2026-04-11T10:06:54Z</time></trkpt><trkpt lat="45.77296516318007" lon="8.95760573683263"><ele>416.0</ele><time>2026-04-11T10:06:57Z</time></trkpt><trkpt lat="45.77293101991949" lon="8.95770059958457"><ele>416.0</ele><time>2026-04-11T10:06:59Z</time></trkpt><trkpt lat="45.77291763760837" lon="8.957793560767055"><ele>416.0</ele><time>2026-04-11T10:07:01.001Z</time></trkpt><trkpt lat="45.7727568613871" lon="8.957832310596975"><ele>416.57142857142856</ele><time>2026-04-11T10:07:04.001Z</time></trkpt><trkpt lat="45.77274022738745" lon="8.957931795358876"><ele>417.14285714285717</ele><time>2026-04-11T10:07:06.001Z</time></trkpt><trkpt lat="45.772716304379784" lon="8.958025464287822"><ele>417.7142857142857</ele><time>2026-04-11T10:07:08.001Z</time></trkpt><trkpt lat="45.77268920551926" lon="8.95812314859016"><ele>418.2857142857143</ele><time>2026-04-11T10:07:10.001Z</time></trkpt><trkpt lat="45.77265676902916" lon="8.95822273326136"><ele>418.8571428571429</ele><time>2026-04-11T10:07:13.001Z</time></trkpt><trkpt lat="45.77262413114992" lon="8.958327245501893"><ele>419.42857142857144</ele><time>2026-04-11T10:07:16.001Z</time></trkpt><trkpt lat="45.772581527421075" lon="8.958409982082095"><ele>420.0</ele><time>2026-04-11T10:07:20.001Z</time></trkpt><trkpt lat="45.77253340336312" lon="8.958487934374084"><ele>417.6666666666667</ele><time>2026-04-11T10:07:24.001Z</time></trkpt><trkpt lat="45.772466127629215" lon="8.958579960205578"><ele>415.33333333333337</ele><time>2026-04-11T10:07:59.001Z</time></trkpt><trkpt lat="45.77239232489264" lon="8.958612772888769"><ele>413.0</ele><time>2026-04-11T10:08:01.002Z</time></trkpt><trkpt lat="45.77232488794378" lon="8.958658951077256"><ele>410.6666666666667</ele><time>2026-04-11T10:08:03.002Z</time></trkpt><trkpt lat="45.77223873418254" lon="8.958666998591788"><ele>408.33333333333337</ele><time>2026-04-11T10:08:05.002Z</time></trkpt><trkpt lat="45.77215117214623" lon="8.958697118013168"><ele>406.0</ele><time>2026-04-11T10:08:07Z</time></trkpt><trkpt lat="45.77207328673625" lon="8.95866173374328"><ele>406.00000000000006</ele><time>2026-04-11T10:08:09Z</time></trkpt><trkpt lat="45.771984423787806" lon="8.958705150811634"><ele>406.0</ele><time>2026-04-11T10:08:11Z</time></trkpt><trkpt lat="45.77190448215141" lon="8.958705647154124"><ele>406.0</ele><time>2026-04-11T10:08:13Z</time></trkpt><trkpt lat="45.77180522716143" lon="8.95872405756196"><ele>406.0</ele><time>2026-04-11T10:08:15Z</time></trkpt><trkpt lat="45.7717266789526" lon="8.95873391243121"><ele>406.00000000000006</ele><time>2026-04-11T10:08:17Z</time></trkpt><trkpt lat="45.77163842057292" lon="8.95874785093173"><ele>406.0</ele><time>2026-04-11T10:08:19Z</time></trkpt><trkpt lat="45.77154174126961" lon="8.958771566469094"><ele>406.33333333333337</ele><time>2026-04-11T10:08:21Z</time></trkpt><trkpt lat="45.771461151287255" lon="8.95877918230903"><ele>406.6666666666667</ele><time>2026-04-11T10:08:23Z</time></trkpt><trkpt lat="45.77139616413585" lon="8.958813583565506"><ele>407.0</ele><time>2026-04-11T10:08:25Z</time></trkpt><trkpt lat="45.77131365045026" lon="8.958816679350157"><ele>407.33333333333337</ele><time>2026-04-11T10:08:27Z</time></trkpt><trkpt lat="45.771245006212645" lon="8.95884861059758"><ele>407.6666666666667</ele><time>2026-04-11T10:08:30Z</time></trkpt><trkpt lat="45.77125317524679" lon="8.95902195327278"><ele>408.0</ele><time>2026-04-11T10:08:31Z</time></trkpt><trkpt lat="45.771230960047895" lon="8.959144169195786"><ele>406.5</ele><time>2026-04-11T10:08:33Z</time></trkpt><trkpt lat="45.77123070879202" lon="8.959289308508284"><ele>405.0</ele><time>2026-04-11T10:08:35Z</time></trkpt><trkpt lat="45.77123946947716" lon="8.95943645971631"><ele>403.5</ele><time>2026-04-11T10:08:37Z</time></trkpt><trkpt lat="45.77122843509706" lon="8.95958266164217"><ele>402.0</ele><time>2026-04-11T10:08:39Z</time></trkpt><trkpt lat="45.77138733957213" lon="8.959590605028998"><ele>402.0</ele><time>2026-04-11T10:08:42Z</time></trkpt><trkpt lat="45.7714718733006" lon="8.959570974878083"><ele>402.0</ele><time>2026-04-11T10:08:44Z</time></trkpt><trkpt lat="45.77155030189328" lon="8.959531092253997"><ele>402.0</ele><time>2026-04-11T10:08:47Z</time></trkpt><trkpt lat="45.77162159434427" lon="8.959513586058286"><ele>402.0</ele><time>2026-04-11T10:08:50Z</time></trkpt><trkpt lat="45.77168513645811" lon="8.959501120512233"><ele>402.0</ele><time>2026-04-11T10:08:52Z</time></trkpt><trkpt lat="45.77175324311295" lon="8.959479922564217"><ele>402.0</ele><time>2026-04-11T10:08:54Z</time></trkpt><trkpt lat="45.771843369600056" lon="8.959449534904621"><ele>401.0</ele><time>2026-04-11T10:08:57Z</time></trkpt><trkpt lat="45.77191170001041" lon="8.959460425177232"><ele>400.0</ele><time>2026-04-11T10:08:59.001Z</time></trkpt><trkpt lat="45.771987419512655" lon="8.959433627361463"><ele>399.0</ele><time>2026-04-11T10:09:01.001Z</time></trkpt><trkpt lat="45.77206340812046" lon="8.95940722053184"><ele>398.0</ele><time>2026-04-11T10:09:03.001Z</time></trkpt><trkpt lat="45.772141044674434" lon="8.959365505583257"><ele>397.0</ele><time>2026-04-11T10:09:05.001Z</time></trkpt><trkpt lat="45.772215405877716" lon="8.959339951280533"><ele>396.0</ele><time>2026-04-11T10:09:07.001Z</time></trkpt><trkpt lat="45.77230569113707" lon="8.95934548020787"><ele>396.0</ele><time>2026-04-11T10:09:09.001Z</time></trkpt><trkpt lat="45.77239340565083" lon="8.959330910734465"><ele>396.0</ele><time>2026-04-11T10:09:11.001Z</time></trkpt><trkpt lat="45.77248021159991" lon="8.959319468133383"><ele>396.0</ele><time>2026-04-11T10:09:13.001Z</time></trkpt><trkpt lat="45.77257511018491" lon="8.959288264617756"><ele>396.0</ele><time>2026-04-11T10:09:15.001Z</time></trkpt><trkpt lat="45.77268636921528" lon="8.959270781172442"><ele>396.0</ele><time>2026-04-11T10:09:17.001Z</time></trkpt><trkpt lat="45.772750005432606" lon="8.959260835953115"><ele>396.0</ele><time>2026-04-11T10:09:18.001Z</time></trkpt><trkpt lat="45.772817275019975" lon="8.959253210480327"><ele>395.6666666666667</ele><time>2026-04-11T10:09:19.001Z</time></trkpt><trkpt lat="45.77289117954323" lon="8.959244040604787"><ele>395.33333333333337</ele><time>2026-04-11T10:09:20.001Z</time></trkpt><trkpt lat="45.77295743184636" lon="8.959239926823209"><ele>395.0</ele><time>2026-04-11T10:09:21.001Z</time></trkpt><trkpt lat="45.77307370360956" lon="8.959238905811738"><ele>394.6666666666667</ele><time>2026-04-11T10:09:23.001Z</time></trkpt><trkpt lat="45.7731577198476" lon="8.959246329025992"><ele>394.33333333333337</ele><time>2026-04-11T10:09:25.001Z</time></trkpt><trkpt lat="45.77324634020544" lon="8.959257383528579"><ele>394.0</ele><time>2026-04-11T10:09:28.001Z</time></trkpt><trkpt lat="45.77332035853525" lon="8.959282631728835"><ele>394.0</ele><time>2026-04-11T10:09:30.001Z</time></trkpt><trkpt lat="45.773413287011735" lon="8.959301649360754"><ele>394.0</ele><time>2026-04-11T10:09:32.001Z</time></trkpt><trkpt lat="45.773524841905946" lon="8.959322892538484"><ele>394.0</ele><time>2026-04-11T10:09:34.001Z</time></trkpt><trkpt lat="45.773642137426144" lon="8.95934595326355"><ele>394.0</ele><time>2026-04-11T10:09:36.001Z</time></trkpt><trkpt lat="45.77376204924974" lon="8.959362839125834"><ele>394.0</ele><time>2026-04-11T10:09:38.001Z</time></trkpt><trkpt lat="45.773883583359726" lon="8.959381089011654"><ele>394.0</ele><time>2026-04-11T10:09:40.001Z</time></trkpt><trkpt lat="45.77399652049016" lon="8.959412525062962"><ele>394.0</ele><time>2026-04-11T10:09:42.001Z</time></trkpt><trkpt lat="45.77410775185304" lon="8.959432697721725"><ele>394.0</ele><time>2026-04-11T10:09:44.001Z</time></trkpt><trkpt lat="45.774214705180384" lon="8.959454658567525"><ele>394.0</ele><time>2026-04-11T10:09:46.001Z</time></trkpt><trkpt lat="45.77431894090523" lon="8.959489613746292"><ele>394.0</ele><time>2026-04-11T10:09:48.001Z</time></trkpt><trkpt lat="45.774425862085565" lon="8.959535291877678"><ele>393.6</ele><time>2026-04-11T10:09:50.001Z</time></trkpt><trkpt lat="45.774530826057955" lon="8.959593575076385"><ele>393.2</ele><time>2026-04-11T10:09:52.001Z</time></trkpt><trkpt lat="45.77463452156479" lon="8.95966939849264"><ele>392.8</ele><time>2026-04-11T10:09:54.001Z</time></trkpt><trkpt lat="45.77474508204948" lon="8.959738818460844"><ele>392.40000000000003</ele><time>2026-04-11T10:09:56.001Z</time></trkpt><trkpt lat="45.77480636843046" lon="8.959773435243854"><ele>392.0</ele><time>2026-04-11T10:09:57.002Z</time></trkpt><trkpt lat="45.77486420560407" lon="8.95981141409577"><ele>392.0</ele><time>2026-04-11T10:09:58.002Z</time></trkpt><trkpt lat="45.774919139643714" lon="8.959856379356372"><ele>392.0</ele><time>2026-04-11T10:09:59.002Z</time></trkpt><trkpt lat="45.77497712544313" lon="8.959895185194801"><ele>392.0</ele><time>2026-04-11T10:10:00.002Z</time></trkpt><trkpt lat="45.775093120796576" lon="8.959972450739144"><ele>392.0</ele><time>2026-04-11T10:10:02.002Z</time></trkpt><trkpt lat="45.77515200557973" lon="8.96001112062821"><ele>392.0</ele><time>2026-04-11T10:10:03.002Z</time></trkpt><trkpt lat="45.775210677950525" lon="8.96004802833462"><ele>392.0</ele><time>2026-04-11T10:10:04.002Z</time></trkpt><trkpt lat="45.77526832617681" lon="8.9600874906562"><ele>392.0</ele><time>2026-04-11T10:10:05.002Z</time></trkpt><trkpt lat="45.77537882063811" lon="8.96017220131554"><ele>391.6</ele><time>2026-04-11T10:10:07.002Z</time></trkpt><trkpt lat="45.77543762701611" lon="8.960205753667015"><ele>391.20000000000005</ele><time>2026-04-11T10:10:08.002Z</time></trkpt><trkpt lat="45.775541391831425" lon="8.960271871854852"><ele>390.8</ele><time>2026-04-11T10:10:10.002Z</time></trkpt><trkpt lat="45.77564788250699" lon="8.960349071188121"><ele>390.4</ele><time>2026-04-11T10:10:12.002Z</time></trkpt><trkpt lat="45.77573826408931" lon="8.960408062388586"><ele>390.0</ele><time>2026-04-11T10:10:14Z</time></trkpt><trkpt lat="45.7758289276495" lon="8.960467504913355"><ele>390.0</ele><time>2026-04-11T10:10:16Z</time></trkpt><trkpt lat="45.77591183691106" lon="8.960522192833272"><ele>390.0</ele><time>2026-04-11T10:10:18Z</time></trkpt><trkpt lat="45.77597586899148" lon="8.960581479200366"><ele>390.0</ele><time>2026-04-11T10:10:20Z</time></trkpt><trkpt lat="45.77603699464775" lon="8.96061790174468"><ele>390.0</ele><time>2026-04-11T10:10:22Z</time></trkpt><trkpt lat="45.77610611622977" lon="8.960663738245662"><ele>390.0</ele><time>2026-04-11T10:10:24Z</time></trkpt><trkpt lat="45.77618607468824" lon="8.96072251433676"><ele>390.0</ele><time>2026-04-11T10:10:26Z</time></trkpt><trkpt lat="45.77625994699096" lon="8.960771959342617"><ele>390.1666666666667</ele><time>2026-04-11T10:10:28Z</time></trkpt><trkpt lat="45.776341453533995" lon="8.960816577296265"><ele>390.33333333333337</ele><time>2026-04-11T10:10:30Z</time></trkpt><trkpt lat="45.77642638424865" lon="8.960847663315123"><ele>390.5</ele><time>2026-04-11T10:10:32Z</time></trkpt><trkpt lat="45.7765122553531" lon="8.960863690378797"><ele>390.6666666666667</ele><time>2026-04-11T10:10:34Z</time></trkpt><trkpt lat="45.7765914971805" lon="8.960883728538887"><ele>390.83333333333337</ele><time>2026-04-11T10:10:36Z</time></trkpt><trkpt lat="45.776667963497864" lon="8.960897251843981"><ele>391.0</ele><time>2026-04-11T10:10:38Z</time></trkpt><trkpt lat="45.77673248816647" lon="8.960930940396258"><ele>391.00000000000006</ele><time>2026-04-11T10:10:57.001Z</time></trkpt><trkpt lat="45.77677943102098" lon="8.961017352403747"><ele>391.0</ele><time>2026-04-11T10:10:59.001Z</time></trkpt><trkpt lat="45.77680333583721" lon="8.961140566799413"><ele>391.0</ele><time>2026-04-11T10:11:02.001Z</time></trkpt><trkpt lat="45.77684877887156" lon="8.961205338640521"><ele>391.0</ele><time>2026-04-11T10:11:04.001Z</time></trkpt><trkpt lat="45.776911597287054" lon="8.961255324002426"><ele>391.00000000000006</ele><time>2026-04-11T10:11:06.001Z</time></trkpt><trkpt lat="45.77698742976462" lon="8.961226256757676"><ele>391.0</ele><time>2026-04-11T10:11:08.001Z</time></trkpt><trkpt lat="45.77711445492203" lon="8.961312626563211"><ele>391.00000000000006</ele><time>2026-04-11T10:11:11.001Z</time></trkpt><trkpt lat="45.777162580578725" lon="8.961374570398975"><ele>391.0</ele><time>2026-04-11T10:11:13.001Z</time></trkpt><trkpt lat="45.77706002342226" lon="8.961526059701393"><ele>391.0</ele><time>2026-04-11T10:11:21.001Z</time></trkpt><trkpt lat="45.776993686564566" lon="8.961487496194712"><ele>391.0</ele><time>2026-04-11T10:11:24.001Z</time></trkpt><trkpt lat="45.776977108311776" lon="8.961373717860925"><ele>391.00000000000006</ele><time>2026-04-11T10:11:26.001Z</time></trkpt><trkpt lat="45.77692368908111" lon="8.961312963496825"><ele>391.0</ele><time>2026-04-11T10:11:31.001Z</time></trkpt><trkpt lat="45.77685241089031" lon="8.961349785593125"><ele>391.00000000000006</ele><time>2026-04-11T10:11:35.001Z</time></trkpt><trkpt lat="45.7767697578479" lon="8.961389123343476"><ele>391.0</ele><time>2026-04-11T10:11:39.001Z</time></trkpt><trkpt lat="45.776701423174764" lon="8.961401826893752"><ele>391.0</ele><time>2026-04-11T10:11:41.001Z</time></trkpt><trkpt lat="45.776630858617345" lon="8.961439051964808"><ele>391.0</ele><time>2026-04-11T10:11:43.001Z</time></trkpt><trkpt lat="45.77655277786925" lon="8.961486181511596"><ele>391.00000000000006</ele><time>2026-04-11T10:11:45.001Z</time></trkpt><trkpt lat="45.776479045837696" lon="8.96157115425487"><ele>391.0</ele><time>2026-04-11T10:11:47.001Z</time></trkpt><trkpt lat="45.776391123093795" lon="8.961622977472908"><ele>391.0</ele><time>2026-04-11T10:11:49.001Z</time></trkpt><trkpt lat="45.77629685479741" lon="8.961675946744887"><ele>391.0</ele><time>2026-04-11T10:11:51.002Z</time></trkpt><trkpt lat="45.77620923658625" lon="8.96172695859417"><ele>391.0</ele><time>2026-04-11T10:11:53.002Z</time></trkpt><trkpt lat="45.77612017218681" lon="8.961800053127906"><ele>391.0</ele><time>2026-04-11T10:11:55.002Z</time></trkpt><trkpt lat="45.7760178119603" lon="8.961848343307194"><ele>391.0</ele><time>2026-04-11T10:11:57.002Z</time></trkpt><trkpt lat="45.77592469972353" lon="8.961937900488135"><ele>390.8</ele><time>2026-04-11T10:11:59.002Z</time></trkpt><trkpt lat="45.77582408937833" lon="8.961992296811594"><ele>390.6</ele><time>2026-04-11T10:12:01.002Z</time></trkpt><trkpt lat="45.775742554461054" lon="8.962089035457108"><ele>390.4</ele><time>2026-04-11T10:12:03.002Z</time></trkpt><trkpt lat="45.77565405969435" lon="8.962173565526388"><ele>390.2</ele><time>2026-04-11T10:12:05.002Z</time></trkpt><trkpt lat="45.77556829286577" lon="8.96224276862453"><ele>390.0</ele><time>2026-04-11T10:12:07.002Z</time></trkpt><trkpt lat="45.77549076209028" lon="8.962322745989564"><ele>390.0</ele><time>2026-04-11T10:12:09.002Z</time></trkpt><trkpt lat="45.77541599346414" lon="8.962407934026642"><ele>390.0</ele><time>2026-04-11T10:12:11.002Z</time></trkpt><trkpt lat="45.775346606170906" lon="8.962483650153423"><ele>390.0</ele><time>2026-04-11T10:12:13.002Z</time></trkpt><trkpt lat="45.775275171612336" lon="8.962558809997178"><ele>390.0</ele><time>2026-04-11T10:12:15.002Z</time></trkpt><trkpt lat="45.77522158625112" lon="8.962631394004735"><ele>390.0</ele><time>2026-04-11T10:12:17.002Z</time></trkpt><trkpt lat="45.77522300186532" lon="8.962741409050047"><ele>390.0</ele><time>2026-04-11T10:12:20Z</time></trkpt><trkpt lat="45.77523287346156" lon="8.962901951492704"><ele>390.0</ele><time>2026-04-11T10:13:09.001Z</time></trkpt><trkpt lat="45.77544596617652" lon="8.962958192208696"><ele>390.0</ele><time>2026-04-11T10:13:11.001Z</time></trkpt><trkpt lat="45.77554481741025" lon="8.963001026785046"><ele>390.0</ele><time>2026-04-11T10:13:13.001Z</time></trkpt><trkpt lat="45.77563975480599" lon="8.963061720551064"><ele>390.0</ele><time>2026-04-11T10:13:15.001Z</time></trkpt><trkpt lat="45.77573578143377" lon="8.963110830405936"><ele>390.0</ele><time>2026-04-11T10:13:17.001Z</time></trkpt><trkpt lat="45.775826759337725" lon="8.963158842154096"><ele>390.0</ele><time>2026-04-11T10:13:19.001Z</time></trkpt><trkpt lat="45.77592057119496" lon="8.96320434394409"><ele>390.0</ele><time>2026-04-11T10:13:21.001Z</time></trkpt><trkpt lat="45.77599525028238" lon="8.963241725844139"><ele>390.0</ele><time>2026-04-11T10:13:23.001Z</time></trkpt><trkpt lat="45.77609423850029" lon="8.96325045511639"><ele>390.0</ele><time>2026-04-11T10:13:25.001Z</time></trkpt><trkpt lat="45.776159374945124" lon="8.963239042353855"><ele>390.0</ele><time>2026-04-11T10:13:26.001Z</time></trkpt><trkpt lat="45.776265290796445" lon="8.963242946705257"><ele>390.0</ele><time>2026-04-11T10:13:28.001Z</time></trkpt><trkpt lat="45.77624064102968" lon="8.963147652414243"><ele>390.0</ele><time>2026-04-11T10:13:29.001Z</time></trkpt><trkpt lat="45.77633962020061" lon="8.963361892897321"><ele>390.0</ele><time>2026-04-11T10:13:30.001Z</time></trkpt><trkpt lat="45.77641727810828" lon="8.96346929146986"><ele>390.0</ele><time>2026-04-11T10:13:32.001Z</time></trkpt><trkpt lat="45.7764820277034" lon="8.96358025419975"><ele>390.0</ele><time>2026-04-11T10:13:34.001Z</time></trkpt><trkpt lat="45.77654474944328" lon="8.9637040826809"><ele>390.0</ele><time>2026-04-11T10:13:36.001Z</time></trkpt><trkpt lat="45.77649228789849" lon="8.963771223725212"><ele>390.0</ele><time>2026-04-11T10:13:37.001Z</time></trkpt><trkpt lat="45.776450040542564" lon="8.963906335182081"><ele>390.0</ele><time>2026-04-11T10:13:39.001Z</time></trkpt><trkpt lat="45.77644941922458" lon="8.964059173195661"><ele>390.0</ele><time>2026-04-11T10:13:41.001Z</time></trkpt><trkpt lat="45.77649053873523" lon="8.96419298978069"><ele>390.6666666666667</ele><time>2026-04-11T10:13:43.001Z</time></trkpt><trkpt lat="45.77651401767026" lon="8.964318860620423"><ele>391.33333333333337</ele><time>2026-04-11T10:13:45.001Z</time></trkpt><trkpt lat="45.77654944510745" lon="8.964445578992052"><ele>392.0</ele><time>2026-04-11T10:13:47.001Z</time></trkpt><trkpt lat="45.77660678316344" lon="8.964549284115426"><ele>392.6666666666667</ele><time>2026-04-11T10:13:49.001Z</time></trkpt><trkpt lat="45.77662964652061" lon="8.964637851152006"><ele>393.33333333333337</ele><time>2026-04-11T10:13:51.001Z</time></trkpt><trkpt lat="45.7766552281149" lon="8.964738550942828"><ele>394.0</ele><time>2026-04-11T10:13:53.001Z</time></trkpt><trkpt lat="45.776667793362684" lon="8.964838802378507"><ele>394.0</ele><time>2026-04-11T10:13:55.001Z</time></trkpt><trkpt lat="45.77667224973288" lon="8.964945303976245"><ele>394.0</ele><time>2026-04-11T10:13:57.001Z</time></trkpt><trkpt lat="45.776678717898854" lon="8.965054373915901"><ele>394.0</ele><time>2026-04-11T10:13:59.002Z</time></trkpt><trkpt lat="45.776677335247356" lon="8.965156863861225"><ele>394.0</ele><time>2026-04-11T10:14:01.002Z</time></trkpt><trkpt lat="45.776680841543175" lon="8.96525883094764"><ele>394.0</ele><time>2026-04-11T10:14:03.002Z</time></trkpt><trkpt lat="45.77671825214591" lon="8.965338474569116"><ele>394.0</ele><time>2026-04-11T10:14:05.002Z</time></trkpt><trkpt lat="45.77678102633796" lon="8.965361077564395"><ele>394.0</ele><time>2026-04-11T10:14:07.002Z</time></trkpt><trkpt lat="45.77684962958572" lon="8.965423785438508"><ele>394.1666666666667</ele><time>2026-04-11T10:14:09.002Z</time></trkpt><trkpt lat="45.77689881694233" lon="8.96549688935952"><ele>394.33333333333337</ele><time>2026-04-11T10:14:11.002Z</time></trkpt><trkpt lat="45.77695232194496" lon="8.96556896799806"><ele>394.5</ele><time>2026-04-11T10:14:13.002Z</time></trkpt><trkpt lat="45.77697429165933" lon="8.96566958818501"><ele>394.66666666666663</ele><time>2026-04-11T10:14:15.002Z</time></trkpt><trkpt lat="45.77696197760774" lon="8.9657882680519"><ele>394.8333333333333</ele><time>2026-04-11T10:14:17.002Z</time></trkpt><trkpt lat="45.776935307175435" lon="8.965897807384739"><ele>395.0</ele><time>2026-04-11T10:14:19.002Z</time></trkpt><trkpt lat="45.77692461576105" lon="8.966021196305787"><ele>394.99999999999994</ele><time>2026-04-11T10:14:21.002Z</time></trkpt><trkpt lat="45.77693569208516" lon="8.966163680671272"><ele>395.0</ele><time>2026-04-11T10:14:23.002Z</time></trkpt><trkpt lat="45.77697594504938" lon="8.96628208653408"><ele>395.0</ele><time>2026-04-11T10:14:25Z</time></trkpt><trkpt lat="45.777048623954414" lon="8.966378167593366"><ele>395.0</ele><time>2026-04-11T10:14:27Z</time></trkpt><trkpt lat="45.77711435090615" lon="8.966465200062814"><ele>394.99999999999994</ele><time>2026-04-11T10:14:29Z</time></trkpt><trkpt lat="45.777157867715964" lon="8.966541794468116"><ele>395.0</ele><time>2026-04-11T10:14:31Z</time></trkpt><trkpt lat="45.77708825911827" lon="8.966631096202802"><ele>395.0</ele><time>2026-04-11T10:14:33Z</time></trkpt><trkpt lat="45.77699641645201" lon="8.966685787843065"><ele>395.0</ele><time>2026-04-11T10:14:35Z</time></trkpt><trkpt lat="45.77692530448089" lon="8.966760004623655"><ele>395.0</ele><time>2026-04-11T10:14:37Z</time></trkpt><trkpt lat="45.77686151572508" lon="8.966818432074405"><ele>395.0</ele><time>2026-04-11T10:14:39Z</time></trkpt><trkpt lat="45.77693056184278" lon="8.96696310496582"><ele>395.0</ele><time>2026-04-11T10:14:41Z</time></trkpt><trkpt lat="45.776980003854376" lon="8.967059236425305"><ele>394.99999999999994</ele><time>2026-04-11T10:14:43Z</time></trkpt><trkpt lat="45.777028525075174" lon="8.967155916498612"><ele>395.0</ele><time>2026-04-11T10:14:45Z</time></trkpt><trkpt lat="45.77707704579997" lon="8.96725678104758"><ele>395.0</ele><time>2026-04-11T10:14:47Z</time></trkpt><trkpt lat="45.77711498259655" lon="8.967366959992937"><ele>395.0</ele><time>2026-04-11T10:14:49Z</time></trkpt><trkpt lat="45.77714095834961" lon="8.967477572326864"><ele>394.99999999999994</ele><time>2026-04-11T10:14:51Z</time></trkpt><trkpt lat="45.77714806754514" lon="8.967589482092084"><ele>395.0</ele><time>2026-04-11T10:14:53Z</time></trkpt><trkpt lat="45.777138998736845" lon="8.96769966671762"><ele>394.99999999999994</ele><time>2026-04-11T10:14:55Z</time></trkpt><trkpt lat="45.77712731953922" lon="8.967808017314209"><ele>395.0</ele><time>2026-04-11T10:14:57Z</time></trkpt><trkpt lat="45.777105040254966" lon="8.967919256935902"><ele>395.0</ele><time>2026-04-11T10:14:59Z</time></trkpt><trkpt lat="45.77706460826518" lon="8.968020362673867"><ele>395.0</ele><time>2026-04-11T10:15:01Z</time></trkpt><trkpt lat="45.77701419081218" lon="8.968107632725527"><ele>394.99999999999994</ele><time>2026-04-11T10:15:03Z</time></trkpt><trkpt lat="45.776963421060216" lon="8.968184824455308"><ele>395.0</ele><time>2026-04-11T10:15:05Z</time></trkpt><trkpt lat="45.77691247314621" lon="8.968264618205188"><ele>395.0</ele><time>2026-04-11T10:15:07Z</time></trkpt><trkpt lat="45.77686611465732" lon="8.968338260633313"><ele>395.0</ele><time>2026-04-11T10:15:09Z</time></trkpt><trkpt lat="45.776823347452805" lon="8.96841195255467"><ele>395.0</ele><time>2026-04-11T10:15:11Z</time></trkpt><trkpt lat="45.77678120521987" lon="8.968487048300652"><ele>395.0</ele><time>2026-04-11T10:15:13Z</time></trkpt><trkpt lat="45.77674501394507" lon="8.968573560421524"><ele>395.0</ele><time>2026-04-11T10:15:15Z</time></trkpt><trkpt lat="45.77671396435501" lon="8.968654391486314"><ele>395.0</ele><time>2026-04-11T10:15:17Z</time></trkpt><trkpt lat="45.7766877001821" lon="8.968750074913157"><ele>395.0</ele><time>2026-04-11T10:15:19Z</time></trkpt><trkpt lat="45.77668318012225" lon="8.968844196400168"><ele>395.3333333333333</ele><time>2026-04-11T10:15:21.001Z</time></trkpt><trkpt lat="45.77668056480764" lon="8.968970292824354"><ele>395.66666666666663</ele><time>2026-04-11T10:15:24.001Z</time></trkpt><trkpt lat="45.77666133825706" lon="8.969080637467293"><ele>396.0</ele><time>2026-04-11T10:15:27.001Z</time></trkpt><trkpt lat="45.77663743181074" lon="8.969173332014632"><ele>396.33333333333337</ele><time>2026-04-11T10:15:30.001Z</time></trkpt><trkpt lat="45.776595455384005" lon="8.96925684073888"><ele>396.6666666666667</ele><time>2026-04-11T10:15:33.001Z</time></trkpt><trkpt lat="45.77652575010256" lon="8.969365870375064"><ele>397.0</ele><time>2026-04-11T10:15:37.001Z</time></trkpt><trkpt lat="45.77647793026452" lon="8.969436255555705"><ele>397.20000000000005</ele><time>2026-04-11T10:15:39.001Z</time></trkpt><trkpt lat="45.77641505769738" lon="8.969504413085359"><ele>397.4</ele><time>2026-04-11T10:15:41.001Z</time></trkpt><trkpt lat="45.77634606916516" lon="8.969593803389618"><ele>397.6</ele><time>2026-04-11T10:15:43.001Z</time></trkpt><trkpt lat="45.77627395021055" lon="8.969693415837613"><ele>397.79999999999995</ele><time>2026-04-11T10:15:45.001Z</time></trkpt><trkpt lat="45.77620028180333" lon="8.969799498017192"><ele>398.0</ele><time>2026-04-11T10:15:47.001Z</time></trkpt><trkpt lat="45.77612179389484" lon="8.96989721852599"><ele>398.0</ele><time>2026-04-11T10:15:49.001Z</time></trkpt><trkpt lat="45.77606044090206" lon="8.970021896752513"><ele>398.0</ele><time>2026-04-11T10:15:51.001Z</time></trkpt><trkpt lat="45.77603001961703" lon="8.970155590655006"><ele>398.0</ele><time>2026-04-11T10:15:53.001Z</time></trkpt><trkpt lat="45.776001956142096" lon="8.970283237032005"><ele>398.0</ele><time>2026-04-11T10:15:55.001Z</time></trkpt><trkpt lat="45.775985350248305" lon="8.970395890558233"><ele>398.0</ele><time>2026-04-11T10:15:57.001Z</time></trkpt><trkpt lat="45.77596041263534" lon="8.970519165211536"><ele>397.8333333333333</ele><time>2026-04-11T10:15:59.001Z</time></trkpt><trkpt lat="45.77592797364539" lon="8.970629505541364"><ele>397.66666666666663</ele><time>2026-04-11T10:16:01.001Z</time></trkpt><trkpt lat="45.775900565495064" lon="8.97075002603332"><ele>397.5</ele><time>2026-04-11T10:16:03.001Z</time></trkpt><trkpt lat="45.77587010062364" lon="8.970860764243032"><ele>397.33333333333337</ele><time>2026-04-11T10:16:05.001Z</time></trkpt><trkpt lat="45.77585920573459" lon="8.970976915954969"><ele>397.1666666666667</ele><time>2026-04-11T10:16:07.001Z</time></trkpt><trkpt lat="45.77584236735384" lon="8.971091493114477"><ele>397.0</ele><time>2026-04-11T10:16:09.001Z</time></trkpt><trkpt lat="45.77581927374482" lon="8.971198522806475"><ele>396.83333333333337</ele><time>2026-04-11T10:16:11.001Z</time></trkpt><trkpt lat="45.775788549978664" lon="8.971296008467908"><ele>396.6666666666667</ele><time>2026-04-11T10:16:13.001Z</time></trkpt><trkpt lat="45.77574732379374" lon="8.97140506223073"><ele>396.5</ele><time>2026-04-11T10:16:15.001Z</time></trkpt><trkpt lat="45.77568863016711" lon="8.971508462719607"><ele>396.33333333333337</ele><time>2026-04-11T10:16:17.001Z</time></trkpt><trkpt lat="45.775642433535445" lon="8.971620317501868"><ele>396.1666666666667</ele><time>2026-04-11T10:16:19.001Z</time></trkpt><trkpt lat="45.77558993398974" lon="8.971725567791816"><ele>396.0</ele><time>2026-04-11T10:16:21.002Z</time></trkpt><trkpt lat="45.775543175435025" lon="8.97184109384923"><ele>396.0</ele><time>2026-04-11T10:16:23.002Z</time></trkpt><trkpt lat="45.77549812768485" lon="8.971944881259864"><ele>396.0</ele><time>2026-04-11T10:16:25.002Z</time></trkpt><trkpt lat="45.77545165625878" lon="8.972051064394856"><ele>396.0</ele><time>2026-04-11T10:16:27.002Z</time></trkpt><trkpt lat="45.7754070917332" lon="8.972152134554262"><ele>396.0</ele><time>2026-04-11T10:16:29.002Z</time></trkpt><trkpt lat="45.7753638161382" lon="8.97224357080572"><ele>396.0</ele><time>2026-04-11T10:16:30.999Z</time></trkpt><trkpt lat="45.775337628492174" lon="8.972347013081642"><ele>396.0</ele><time>2026-04-11T10:16:32.999Z</time></trkpt><trkpt lat="45.77531202914079" lon="8.972460431530727"><ele>396.42857142857144</ele><time>2026-04-11T10:16:34.999Z</time></trkpt><trkpt lat="45.775290025625715" lon="8.97256911259305"><ele>396.85714285714283</ele><time>2026-04-11T10:16:36.999Z</time></trkpt><trkpt lat="45.77525583333421" lon="8.972667993582762"><ele>397.2857142857143</ele><time>2026-04-11T10:16:38.999Z</time></trkpt><trkpt lat="45.775225836902585" lon="8.97276093181842"><ele>397.7142857142857</ele><time>2026-04-11T10:16:40.999Z</time></trkpt><trkpt lat="45.77519674637218" lon="8.97285764631645"><ele>398.1428571428571</ele><time>2026-04-11T10:16:42.999Z</time></trkpt><trkpt lat="45.77517516194874" lon="8.972952263242844"><ele>398.57142857142856</ele><time>2026-04-11T10:16:44.999Z</time></trkpt><trkpt lat="45.77514715175323" lon="8.9730484966381"><ele>399.0</ele><time>2026-04-11T10:16:46.999Z</time></trkpt><trkpt lat="45.77512022450872" lon="8.973147171707357"><ele>400.0</ele><time>2026-04-11T10:16:48.999Z</time></trkpt><trkpt lat="45.77509703979913" lon="8.973245965844768"><ele>401.0</ele><time>2026-04-11T10:16:50.999Z</time></trkpt><trkpt lat="45.77507491000287" lon="8.973340278938148"><ele>402.0</ele><time>2026-04-11T10:16:52.999Z</time></trkpt><trkpt lat="45.775056847047196" lon="8.973438320262535"><ele>403.0</ele><time>2026-04-11T10:16:55Z</time></trkpt><trkpt lat="45.775052464201885" lon="8.973536379625397"><ele>404.0</ele><time>2026-04-11T10:16:57Z</time></trkpt><trkpt lat="45.77505978869817" lon="8.973628687283773"><ele>405.0</ele><time>2026-04-11T10:16:59Z</time></trkpt><trkpt lat="45.775074320851324" lon="8.973724063893947"><ele>406.0</ele><time>2026-04-11T10:17:01Z</time></trkpt><trkpt lat="45.77510021087837" lon="8.973822324058077"><ele>406.0</ele><time>2026-04-11T10:17:03Z</time></trkpt><trkpt lat="45.775126175350415" lon="8.97391663557758"><ele>406.0</ele><time>2026-04-11T10:17:05Z</time></trkpt><trkpt lat="45.77515194201184" lon="8.974009992748092"><ele>406.0</ele><time>2026-04-11T10:17:07Z</time></trkpt><trkpt lat="45.775177740588454" lon="8.974108494532057"><ele>406.0</ele><time>2026-04-11T10:17:09Z</time></trkpt><trkpt lat="45.77520243877344" lon="8.974209535907198"><ele>406.0</ele><time>2026-04-11T10:17:11Z</time></trkpt><trkpt lat="45.775229168498775" lon="8.974306328221862"><ele>406.0</ele><time>2026-04-11T10:17:13Z</time></trkpt><trkpt lat="45.77525610451741" lon="8.974402028027582"><ele>406.0</ele><time>2026-04-11T10:17:15Z</time></trkpt><trkpt lat="45.775277949965485" lon="8.974497956418936"><ele>405.85714285714283</ele><time>2026-04-11T10:17:17Z</time></trkpt><trkpt lat="45.775290762291654" lon="8.974589241074009"><ele>405.7142857142857</ele><time>2026-04-11T10:17:19Z</time></trkpt><trkpt lat="45.77530130449457" lon="8.974686004729964"><ele>405.57142857142856</ele><time>2026-04-11T10:17:21Z</time></trkpt><trkpt lat="45.77532237982383" lon="8.97481187167643"><ele>405.42857142857144</ele><time>2026-04-11T10:17:24Z</time></trkpt><trkpt lat="45.77524891573382" lon="8.97486217960447"><ele>405.2857142857143</ele><time>2026-04-11T10:17:26Z</time></trkpt><trkpt lat="45.77517699545466" lon="8.974832688285803"><ele>405.1428571428571</ele><time>2026-04-11T10:17:28Z</time></trkpt><trkpt lat="45.77510880104692" lon="8.97481987743838"><ele>405.0</ele><time>2026-04-11T10:17:30Z</time></trkpt><trkpt lat="45.77504081651476" lon="8.974810961008668"><ele>405.0</ele><time>2026-04-11T10:17:32Z</time></trkpt><trkpt lat="45.774953596938474" lon="8.974824738513833"><ele>405.0</ele><time>2026-04-11T10:17:34.001Z</time></trkpt><trkpt lat="45.77488501590185" lon="8.974809495016464"><ele>405.0</ele><time>2026-04-11T10:17:36.001Z</time></trkpt><trkpt lat="45.77480850008537" lon="8.974803095888989"><ele>405.0</ele><time>2026-04-11T10:17:38.001Z</time></trkpt><trkpt lat="45.774727296481714" lon="8.974790044877134"><ele>405.0</ele><time>2026-04-11T10:17:40.001Z</time></trkpt><trkpt lat="45.7746439228519" lon="8.974778648210345"><ele>405.0</ele><time>2026-04-11T10:17:42.001Z</time></trkpt><trkpt lat="45.774575693313736" lon="8.974758238984753"><ele>405.0</ele><time>2026-04-11T10:17:44.001Z</time></trkpt><trkpt lat="45.774497069638386" lon="8.974755452855865"><ele>405.0</ele><time>2026-04-11T10:17:46.001Z</time></trkpt><trkpt lat="45.77441446268205" lon="8.974751206036055"><ele>405.0</ele><time>2026-04-11T10:17:48.001Z</time></trkpt><trkpt lat="45.774332374149054" lon="8.974730118143944"><ele>405.0</ele><time>2026-04-11T10:17:50.001Z</time></trkpt><trkpt lat="45.77423786892262" lon="8.974735609818554"><ele>405.0</ele><time>2026-04-11T10:17:52.001Z</time></trkpt><trkpt lat="45.77414525902684" lon="8.974728005096628"><ele>405.0</ele><time>2026-04-11T10:17:54.001Z</time></trkpt><trkpt lat="45.77404815900593" lon="8.974716714936767"><ele>404.8333333333333</ele><time>2026-04-11T10:17:56.001Z</time></trkpt><trkpt lat="45.773953582377644" lon="8.974712698773104"><ele>404.66666666666663</ele><time>2026-04-11T10:17:58.001Z</time></trkpt><trkpt lat="45.773895117752986" lon="8.974631532365182"><ele>404.5</ele><time>2026-04-11T10:18:00.001Z</time></trkpt><trkpt lat="45.77393704803976" lon="8.974557639589094"><ele>404.3333333333333</ele><time>2026-04-11T10:18:05.001Z</time></trkpt><trkpt lat="45.77394632423914" lon="8.974444644662753"><ele>404.16666666666663</ele><time>2026-04-11T10:18:10.001Z</time></trkpt><trkpt lat="45.77398993133389" lon="8.974317070055335"><ele>404.0</ele><time>2026-04-11T10:18:13.001Z</time></trkpt><trkpt lat="45.773983712284114" lon="8.9741964415481"><ele>404.66666666666663</ele><time>2026-04-11T10:18:15.001Z</time></trkpt><trkpt lat="45.77400281173651" lon="8.974081813879803"><ele>405.3333333333333</ele><time>2026-04-11T10:18:17.001Z</time></trkpt><trkpt lat="45.77400233028575" lon="8.973964278121482"><ele>406.0</ele><time>2026-04-11T10:18:19.001Z</time></trkpt><trkpt lat="45.77402137809739" lon="8.973843821693201"><ele>406.66666666666663</ele><time>2026-04-11T10:18:21.001Z</time></trkpt><trkpt lat="45.77403548075368" lon="8.973724283372965"><ele>407.3333333333333</ele><time>2026-04-11T10:18:23.002Z</time></trkpt><trkpt lat="45.77404880796727" lon="8.973600861555157"><ele>408.0</ele><time>2026-04-11T10:18:25.002Z</time></trkpt><trkpt lat="45.774049274780694" lon="8.973483428633052"><ele>408.0</ele><time>2026-04-11T10:18:27.002Z</time></trkpt></trkseg></trk></gpx>